<?xml version="1.0" encoding="UTF-8" standalone="no" ?>
<gpx xmlns="http://www.topografix.com/GPX/1/1" xmlns:xsi="http://www.w3.org/2001/XMLSchema-instance" xsi:schemaLocation="http://www.topografix.com/GPX/1/1 http://www.topografix.com/GPX/1/1/gpx.xsd" version="1.1" creator="VisuGPX - https://www.visugpx.com">
  <metadata>
    <name>Rallye Gendarmerie EDSR 34 - 18 mai 2014 - matin</name>
    <desc><![CDATA[Sortie du matin en petit groupe derrière un gendarme]]></desc>
  </metadata>
  <trk>
    <name><![CDATA[2014-05-18 08:48 Rallye Gendarmerie - 1]]></name>
    <trkseg>
      <trkpt lat="43.60036" lon="3.8575">
        <ele>28.02</ele>
        <time>2014-05-18T06:48:25Z</time>
      </trkpt>
      <trkpt lat="43.60038" lon="3.85748">
        <ele>34.26</ele>
        <time>2014-05-18T06:48:47Z</time>
      </trkpt>
      <trkpt lat="43.60057" lon="3.85772">
        <ele>34.74</ele>
        <time>2014-05-18T06:48:59Z</time>
      </trkpt>
      <trkpt lat="43.60065" lon="3.85767">
        <ele>35.71</ele>
        <time>2014-05-18T06:49:04Z</time>
      </trkpt>
      <trkpt lat="43.60073" lon="3.85752">
        <ele>36.67</ele>
        <time>2014-05-18T06:49:15Z</time>
      </trkpt>
      <trkpt lat="43.60077" lon="3.85745">
        <ele>37.63</ele>
        <time>2014-05-18T06:49:27Z</time>
      </trkpt>
      <trkpt lat="43.60078" lon="3.85742">
        <ele>37.63</ele>
        <time>2014-05-18T06:49:28Z</time>
      </trkpt>
      <trkpt lat="43.60103" lon="3.857">
        <ele>37.63</ele>
        <time>2014-05-18T06:49:37Z</time>
      </trkpt>
      <trkpt lat="43.6011" lon="3.85689">
        <ele>37.63</ele>
        <time>2014-05-18T06:49:50Z</time>
      </trkpt>
      <trkpt lat="43.60122" lon="3.85665">
        <ele>37.15</ele>
        <time>2014-05-18T06:51:15Z</time>
      </trkpt>
      <trkpt lat="43.60144" lon="3.85653">
        <ele>38.11</ele>
        <time>2014-05-18T06:51:23Z</time>
      </trkpt>
      <trkpt lat="43.60148" lon="3.85657">
        <ele>38.11</ele>
        <time>2014-05-18T06:51:24Z</time>
      </trkpt>
      <trkpt lat="43.60169" lon="3.85686">
        <ele>39.55</ele>
        <time>2014-05-18T06:51:32Z</time>
      </trkpt>
      <trkpt lat="43.60175" lon="3.85697">
        <ele>40.03</ele>
        <time>2014-05-18T06:51:34Z</time>
      </trkpt>
      <trkpt lat="43.60177" lon="3.85705">
        <ele>40.51</ele>
        <time>2014-05-18T06:51:35Z</time>
      </trkpt>
      <trkpt lat="43.60178" lon="3.85713">
        <ele>40.99</ele>
        <time>2014-05-18T06:51:36Z</time>
      </trkpt>
      <trkpt lat="43.60177" lon="3.85722">
        <ele>40.99</ele>
        <time>2014-05-18T06:51:37Z</time>
      </trkpt>
      <trkpt lat="43.60175" lon="3.8573">
        <ele>41.47</ele>
        <time>2014-05-18T06:51:38Z</time>
      </trkpt>
      <trkpt lat="43.6017" lon="3.85739">
        <ele>41.47</ele>
        <time>2014-05-18T06:51:39Z</time>
      </trkpt>
      <trkpt lat="43.60163" lon="3.85748">
        <ele>41.47</ele>
        <time>2014-05-18T06:51:40Z</time>
      </trkpt>
      <trkpt lat="43.60156" lon="3.85758">
        <ele>41.47</ele>
        <time>2014-05-18T06:51:41Z</time>
      </trkpt>
      <trkpt lat="43.60061" lon="3.8588">
        <ele>40.03</ele>
        <time>2014-05-18T06:51:53Z</time>
      </trkpt>
      <trkpt lat="43.60008" lon="3.85956">
        <ele>40.03</ele>
        <time>2014-05-18T06:52:01Z</time>
      </trkpt>
      <trkpt lat="43.59921" lon="3.86087">
        <ele>39.55</ele>
        <time>2014-05-18T06:52:13Z</time>
      </trkpt>
      <trkpt lat="43.59861" lon="3.86225">
        <ele>35.71</ele>
        <time>2014-05-18T06:52:24Z</time>
      </trkpt>
      <trkpt lat="43.598" lon="3.8634">
        <ele>34.74</ele>
        <time>2014-05-18T06:52:35Z</time>
      </trkpt>
      <trkpt lat="43.59793" lon="3.86348">
        <ele>34.74</ele>
        <time>2014-05-18T06:52:36Z</time>
      </trkpt>
      <trkpt lat="43.59735" lon="3.86408">
        <ele>34.26</ele>
        <time>2014-05-18T06:52:46Z</time>
      </trkpt>
      <trkpt lat="43.59729" lon="3.86407">
        <ele>33.78</ele>
        <time>2014-05-18T06:52:47Z</time>
      </trkpt>
      <trkpt lat="43.59723" lon="3.86399">
        <ele>33.78</ele>
        <time>2014-05-18T06:52:48Z</time>
      </trkpt>
      <trkpt lat="43.59714" lon="3.86389">
        <ele>33.3</ele>
        <time>2014-05-18T06:52:49Z</time>
      </trkpt>
      <trkpt lat="43.59703" lon="3.86378">
        <ele>33.3</ele>
        <time>2014-05-18T06:52:50Z</time>
      </trkpt>
      <trkpt lat="43.59595" lon="3.86261">
        <ele>32.82</ele>
        <time>2014-05-18T06:52:58Z</time>
      </trkpt>
      <trkpt lat="43.59449" lon="3.86102">
        <ele>38.59</ele>
        <time>2014-05-18T06:53:10Z</time>
      </trkpt>
      <trkpt lat="43.59346" lon="3.8599">
        <ele>45.32</ele>
        <time>2014-05-18T06:53:21Z</time>
      </trkpt>
      <trkpt lat="43.59206" lon="3.85837">
        <ele>52.53</ele>
        <time>2014-05-18T06:53:36Z</time>
      </trkpt>
      <trkpt lat="43.59094" lon="3.85724">
        <ele>53.01</ele>
        <time>2014-05-18T06:53:50Z</time>
      </trkpt>
      <trkpt lat="43.59068" lon="3.85696">
        <ele>52.53</ele>
        <time>2014-05-18T06:53:55Z</time>
      </trkpt>
      <trkpt lat="43.59064" lon="3.85689">
        <ele>52.53</ele>
        <time>2014-05-18T06:53:56Z</time>
      </trkpt>
      <trkpt lat="43.59061" lon="3.85679">
        <ele>52.53</ele>
        <time>2014-05-18T06:53:57Z</time>
      </trkpt>
      <trkpt lat="43.59061" lon="3.85666">
        <ele>52.53</ele>
        <time>2014-05-18T06:53:58Z</time>
      </trkpt>
      <trkpt lat="43.59062" lon="3.8565">
        <ele>52.53</ele>
        <time>2014-05-18T06:53:59Z</time>
      </trkpt>
      <trkpt lat="43.59061" lon="3.85634">
        <ele>52.53</ele>
        <time>2014-05-18T06:54:00Z</time>
      </trkpt>
      <trkpt lat="43.59059" lon="3.85619">
        <ele>52.05</ele>
        <time>2014-05-18T06:54:01Z</time>
      </trkpt>
      <trkpt lat="43.59054" lon="3.85605">
        <ele>52.05</ele>
        <time>2014-05-18T06:54:02Z</time>
      </trkpt>
      <trkpt lat="43.59048" lon="3.85594">
        <ele>51.57</ele>
        <time>2014-05-18T06:54:03Z</time>
      </trkpt>
      <trkpt lat="43.5904" lon="3.85584">
        <ele>51.57</ele>
        <time>2014-05-18T06:54:04Z</time>
      </trkpt>
      <trkpt lat="43.59032" lon="3.85577">
        <ele>51.57</ele>
        <time>2014-05-18T06:54:05Z</time>
      </trkpt>
      <trkpt lat="43.59023" lon="3.85573">
        <ele>51.57</ele>
        <time>2014-05-18T06:54:06Z</time>
      </trkpt>
      <trkpt lat="43.59013" lon="3.85571">
        <ele>51.57</ele>
        <time>2014-05-18T06:54:07Z</time>
      </trkpt>
      <trkpt lat="43.59003" lon="3.85571">
        <ele>51.09</ele>
        <time>2014-05-18T06:54:08Z</time>
      </trkpt>
      <trkpt lat="43.58994" lon="3.85574">
        <ele>51.09</ele>
        <time>2014-05-18T06:54:09Z</time>
      </trkpt>
      <trkpt lat="43.58985" lon="3.85578">
        <ele>50.61</ele>
        <time>2014-05-18T06:54:10Z</time>
      </trkpt>
      <trkpt lat="43.58976" lon="3.85581">
        <ele>50.13</ele>
        <time>2014-05-18T06:54:11Z</time>
      </trkpt>
      <trkpt lat="43.58968" lon="3.85583">
        <ele>50.13</ele>
        <time>2014-05-18T06:54:12Z</time>
      </trkpt>
      <trkpt lat="43.58959" lon="3.85582">
        <ele>49.65</ele>
        <time>2014-05-18T06:54:13Z</time>
      </trkpt>
      <trkpt lat="43.58949" lon="3.85577">
        <ele>49.16</ele>
        <time>2014-05-18T06:54:14Z</time>
      </trkpt>
      <trkpt lat="43.5894" lon="3.85569">
        <ele>49.16</ele>
        <time>2014-05-18T06:54:15Z</time>
      </trkpt>
      <trkpt lat="43.58931" lon="3.85559">
        <ele>49.16</ele>
        <time>2014-05-18T06:54:16Z</time>
      </trkpt>
      <trkpt lat="43.58834" lon="3.85459">
        <ele>47.24</ele>
        <time>2014-05-18T06:54:27Z</time>
      </trkpt>
      <trkpt lat="43.58764" lon="3.85383">
        <ele>44.36</ele>
        <time>2014-05-18T06:54:36Z</time>
      </trkpt>
      <trkpt lat="43.5868" lon="3.85296">
        <ele>40.99</ele>
        <time>2014-05-18T06:54:43Z</time>
      </trkpt>
      <trkpt lat="43.58544" lon="3.85152">
        <ele>36.67</ele>
        <time>2014-05-18T06:54:56Z</time>
      </trkpt>
      <trkpt lat="43.58526" lon="3.85123">
        <ele>36.19</ele>
        <time>2014-05-18T06:54:58Z</time>
      </trkpt>
      <trkpt lat="43.58518" lon="3.85106">
        <ele>35.71</ele>
        <time>2014-05-18T06:54:59Z</time>
      </trkpt>
      <trkpt lat="43.58461" lon="3.84944">
        <ele>30.9</ele>
        <time>2014-05-18T06:55:09Z</time>
      </trkpt>
      <trkpt lat="43.58418" lon="3.84856">
        <ele>28.98</ele>
        <time>2014-05-18T06:55:17Z</time>
      </trkpt>
      <trkpt lat="43.58416" lon="3.84844">
        <ele>28.98</ele>
        <time>2014-05-18T06:55:18Z</time>
      </trkpt>
      <trkpt lat="43.58415" lon="3.84831">
        <ele>28.98</ele>
        <time>2014-05-18T06:55:19Z</time>
      </trkpt>
      <trkpt lat="43.58418" lon="3.84803">
        <ele>28.5</ele>
        <time>2014-05-18T06:55:21Z</time>
      </trkpt>
      <trkpt lat="43.58422" lon="3.8479">
        <ele>28.5</ele>
        <time>2014-05-18T06:55:22Z</time>
      </trkpt>
      <trkpt lat="43.5843" lon="3.84776">
        <ele>28.98</ele>
        <time>2014-05-18T06:55:23Z</time>
      </trkpt>
      <trkpt lat="43.58502" lon="3.8466">
        <ele>30.42</ele>
        <time>2014-05-18T06:55:29Z</time>
      </trkpt>
      <trkpt lat="43.58561" lon="3.84504">
        <ele>31.38</ele>
        <time>2014-05-18T06:55:36Z</time>
      </trkpt>
      <trkpt lat="43.58572" lon="3.84327">
        <ele>35.23</ele>
        <time>2014-05-18T06:55:43Z</time>
      </trkpt>
      <trkpt lat="43.58576" lon="3.84139">
        <ele>39.07</ele>
        <time>2014-05-18T06:55:53Z</time>
      </trkpt>
      <trkpt lat="43.58582" lon="3.83908">
        <ele>40.03</ele>
        <time>2014-05-18T06:56:04Z</time>
      </trkpt>
      <trkpt lat="43.58615" lon="3.83732">
        <ele>41.47</ele>
        <time>2014-05-18T06:56:12Z</time>
      </trkpt>
      <trkpt lat="43.58703" lon="3.83536">
        <ele>42.92</ele>
        <time>2014-05-18T06:56:22Z</time>
      </trkpt>
      <trkpt lat="43.58756" lon="3.83357">
        <ele>44.84</ele>
        <time>2014-05-18T06:56:30Z</time>
      </trkpt>
      <trkpt lat="43.58757" lon="3.83309">
        <ele>45.32</ele>
        <time>2014-05-18T06:56:32Z</time>
      </trkpt>
      <trkpt lat="43.58755" lon="3.83286">
        <ele>45.8</ele>
        <time>2014-05-18T06:56:33Z</time>
      </trkpt>
      <trkpt lat="43.58752" lon="3.83264">
        <ele>45.8</ele>
        <time>2014-05-18T06:56:34Z</time>
      </trkpt>
      <trkpt lat="43.58747" lon="3.83242">
        <ele>46.28</ele>
        <time>2014-05-18T06:56:35Z</time>
      </trkpt>
      <trkpt lat="43.58742" lon="3.83221">
        <ele>46.76</ele>
        <time>2014-05-18T06:56:36Z</time>
      </trkpt>
      <trkpt lat="43.58735" lon="3.83199">
        <ele>47.24</ele>
        <time>2014-05-18T06:56:37Z</time>
      </trkpt>
      <trkpt lat="43.58675" lon="3.82985">
        <ele>50.13</ele>
        <time>2014-05-18T06:56:46Z</time>
      </trkpt>
      <trkpt lat="43.58671" lon="3.82935">
        <ele>51.09</ele>
        <time>2014-05-18T06:56:48Z</time>
      </trkpt>
      <trkpt lat="43.58672" lon="3.82911">
        <ele>51.09</ele>
        <time>2014-05-18T06:56:49Z</time>
      </trkpt>
      <trkpt lat="43.58673" lon="3.82887">
        <ele>51.57</ele>
        <time>2014-05-18T06:56:50Z</time>
      </trkpt>
      <trkpt lat="43.58676" lon="3.82863">
        <ele>51.57</ele>
        <time>2014-05-18T06:56:51Z</time>
      </trkpt>
      <trkpt lat="43.58681" lon="3.82839">
        <ele>51.57</ele>
        <time>2014-05-18T06:56:52Z</time>
      </trkpt>
      <trkpt lat="43.58687" lon="3.82816">
        <ele>52.05</ele>
        <time>2014-05-18T06:56:53Z</time>
      </trkpt>
      <trkpt lat="43.58694" lon="3.82794">
        <ele>52.05</ele>
        <time>2014-05-18T06:56:54Z</time>
      </trkpt>
      <trkpt lat="43.58703" lon="3.82771">
        <ele>52.05</ele>
        <time>2014-05-18T06:56:55Z</time>
      </trkpt>
      <trkpt lat="43.58713" lon="3.8275">
        <ele>52.05</ele>
        <time>2014-05-18T06:56:56Z</time>
      </trkpt>
      <trkpt lat="43.58723" lon="3.8273">
        <ele>52.05</ele>
        <time>2014-05-18T06:56:57Z</time>
      </trkpt>
      <trkpt lat="43.58816" lon="3.82524">
        <ele>48.2</ele>
        <time>2014-05-18T06:57:07Z</time>
      </trkpt>
      <trkpt lat="43.58901" lon="3.82296">
        <ele>41.95</ele>
        <time>2014-05-18T06:57:18Z</time>
      </trkpt>
      <trkpt lat="43.58972" lon="3.8214">
        <ele>36.67</ele>
        <time>2014-05-18T06:57:26Z</time>
      </trkpt>
      <trkpt lat="43.58986" lon="3.82123">
        <ele>35.71</ele>
        <time>2014-05-18T06:57:27Z</time>
      </trkpt>
      <trkpt lat="43.59001" lon="3.82108">
        <ele>35.23</ele>
        <time>2014-05-18T06:57:28Z</time>
      </trkpt>
      <trkpt lat="43.59017" lon="3.82095">
        <ele>34.74</ele>
        <time>2014-05-18T06:57:29Z</time>
      </trkpt>
      <trkpt lat="43.59034" lon="3.82085">
        <ele>33.78</ele>
        <time>2014-05-18T06:57:30Z</time>
      </trkpt>
      <trkpt lat="43.59051" lon="3.82077">
        <ele>33.3</ele>
        <time>2014-05-18T06:57:31Z</time>
      </trkpt>
      <trkpt lat="43.59069" lon="3.82073">
        <ele>32.82</ele>
        <time>2014-05-18T06:57:32Z</time>
      </trkpt>
      <trkpt lat="43.59086" lon="3.82072">
        <ele>32.34</ele>
        <time>2014-05-18T06:57:33Z</time>
      </trkpt>
      <trkpt lat="43.59103" lon="3.82074">
        <ele>31.86</ele>
        <time>2014-05-18T06:57:34Z</time>
      </trkpt>
      <trkpt lat="43.59119" lon="3.82079">
        <ele>31.38</ele>
        <time>2014-05-18T06:57:35Z</time>
      </trkpt>
      <trkpt lat="43.59133" lon="3.82086">
        <ele>31.38</ele>
        <time>2014-05-18T06:57:36Z</time>
      </trkpt>
      <trkpt lat="43.59146" lon="3.82094">
        <ele>30.9</ele>
        <time>2014-05-18T06:57:37Z</time>
      </trkpt>
      <trkpt lat="43.59156" lon="3.82101">
        <ele>30.42</ele>
        <time>2014-05-18T06:57:38Z</time>
      </trkpt>
      <trkpt lat="43.59186" lon="3.82121">
        <ele>29.94</ele>
        <time>2014-05-18T06:57:42Z</time>
      </trkpt>
      <trkpt lat="43.59192" lon="3.82123">
        <ele>29.94</ele>
        <time>2014-05-18T06:57:43Z</time>
      </trkpt>
      <trkpt lat="43.59199" lon="3.82124">
        <ele>29.94</ele>
        <time>2014-05-18T06:57:44Z</time>
      </trkpt>
      <trkpt lat="43.59205" lon="3.82124">
        <ele>29.94</ele>
        <time>2014-05-18T06:57:45Z</time>
      </trkpt>
      <trkpt lat="43.59211" lon="3.82123">
        <ele>29.94</ele>
        <time>2014-05-18T06:57:46Z</time>
      </trkpt>
      <trkpt lat="43.59218" lon="3.82124">
        <ele>29.94</ele>
        <time>2014-05-18T06:57:47Z</time>
      </trkpt>
      <trkpt lat="43.59226" lon="3.82131">
        <ele>29.94</ele>
        <time>2014-05-18T06:57:48Z</time>
      </trkpt>
      <trkpt lat="43.59235" lon="3.82141">
        <ele>30.42</ele>
        <time>2014-05-18T06:57:49Z</time>
      </trkpt>
      <trkpt lat="43.59245" lon="3.82149">
        <ele>30.42</ele>
        <time>2014-05-18T06:57:50Z</time>
      </trkpt>
      <trkpt lat="43.59256" lon="3.82155">
        <ele>30.9</ele>
        <time>2014-05-18T06:57:51Z</time>
      </trkpt>
      <trkpt lat="43.59268" lon="3.82157">
        <ele>30.9</ele>
        <time>2014-05-18T06:57:52Z</time>
      </trkpt>
      <trkpt lat="43.59279" lon="3.82155">
        <ele>31.38</ele>
        <time>2014-05-18T06:57:53Z</time>
      </trkpt>
      <trkpt lat="43.5929" lon="3.82151">
        <ele>30.9</ele>
        <time>2014-05-18T06:57:54Z</time>
      </trkpt>
      <trkpt lat="43.593" lon="3.82143">
        <ele>30.9</ele>
        <time>2014-05-18T06:57:55Z</time>
      </trkpt>
      <trkpt lat="43.59308" lon="3.8213">
        <ele>30.9</ele>
        <time>2014-05-18T06:57:56Z</time>
      </trkpt>
      <trkpt lat="43.59314" lon="3.82116">
        <ele>30.9</ele>
        <time>2014-05-18T06:57:57Z</time>
      </trkpt>
      <trkpt lat="43.5932" lon="3.82101">
        <ele>30.9</ele>
        <time>2014-05-18T06:57:58Z</time>
      </trkpt>
      <trkpt lat="43.59328" lon="3.82087">
        <ele>30.42</ele>
        <time>2014-05-18T06:57:59Z</time>
      </trkpt>
      <trkpt lat="43.59338" lon="3.82074">
        <ele>30.9</ele>
        <time>2014-05-18T06:58:00Z</time>
      </trkpt>
      <trkpt lat="43.5935" lon="3.82067">
        <ele>30.42</ele>
        <time>2014-05-18T06:58:01Z</time>
      </trkpt>
      <trkpt lat="43.59362" lon="3.82063">
        <ele>31.38</ele>
        <time>2014-05-18T06:58:02Z</time>
      </trkpt>
      <trkpt lat="43.59376" lon="3.82062">
        <ele>31.38</ele>
        <time>2014-05-18T06:58:03Z</time>
      </trkpt>
      <trkpt lat="43.59475" lon="3.82031">
        <ele>33.3</ele>
        <time>2014-05-18T06:58:09Z</time>
      </trkpt>
      <trkpt lat="43.59695" lon="3.82009">
        <ele>31.86</ele>
        <time>2014-05-18T06:58:19Z</time>
      </trkpt>
      <trkpt lat="43.59878" lon="3.82009">
        <ele>32.34</ele>
        <time>2014-05-18T06:58:27Z</time>
      </trkpt>
      <trkpt lat="43.60025" lon="3.81995">
        <ele>33.78</ele>
        <time>2014-05-18T06:58:36Z</time>
      </trkpt>
      <trkpt lat="43.6023" lon="3.81975">
        <ele>35.71</ele>
        <time>2014-05-18T06:58:48Z</time>
      </trkpt>
      <trkpt lat="43.60363" lon="3.81978">
        <ele>36.67</ele>
        <time>2014-05-18T06:58:57Z</time>
      </trkpt>
      <trkpt lat="43.60494" lon="3.81983">
        <ele>36.67</ele>
        <time>2014-05-18T06:59:07Z</time>
      </trkpt>
      <trkpt lat="43.60602" lon="3.82022">
        <ele>35.71</ele>
        <time>2014-05-18T06:59:15Z</time>
      </trkpt>
      <trkpt lat="43.60688" lon="3.8209">
        <ele>35.71</ele>
        <time>2014-05-18T06:59:23Z</time>
      </trkpt>
      <trkpt lat="43.60699" lon="3.82096">
        <ele>36.19</ele>
        <time>2014-05-18T06:59:24Z</time>
      </trkpt>
      <trkpt lat="43.6071" lon="3.82101">
        <ele>36.19</ele>
        <time>2014-05-18T06:59:25Z</time>
      </trkpt>
      <trkpt lat="43.60723" lon="3.82103">
        <ele>36.19</ele>
        <time>2014-05-18T06:59:26Z</time>
      </trkpt>
      <trkpt lat="43.60735" lon="3.82104">
        <ele>36.19</ele>
        <time>2014-05-18T06:59:27Z</time>
      </trkpt>
      <trkpt lat="43.60749" lon="3.82103">
        <ele>36.19</ele>
        <time>2014-05-18T06:59:28Z</time>
      </trkpt>
      <trkpt lat="43.60762" lon="3.82099">
        <ele>36.19</ele>
        <time>2014-05-18T06:59:29Z</time>
      </trkpt>
      <trkpt lat="43.60776" lon="3.82093">
        <ele>36.67</ele>
        <time>2014-05-18T06:59:30Z</time>
      </trkpt>
      <trkpt lat="43.60789" lon="3.82084">
        <ele>36.67</ele>
        <time>2014-05-18T06:59:31Z</time>
      </trkpt>
      <trkpt lat="43.60803" lon="3.82076">
        <ele>36.67</ele>
        <time>2014-05-18T06:59:32Z</time>
      </trkpt>
      <trkpt lat="43.60842" lon="3.82051">
        <ele>36.67</ele>
        <time>2014-05-18T06:59:35Z</time>
      </trkpt>
      <trkpt lat="43.60854" lon="3.82047">
        <ele>36.67</ele>
        <time>2014-05-18T06:59:36Z</time>
      </trkpt>
      <trkpt lat="43.60864" lon="3.82046">
        <ele>37.15</ele>
        <time>2014-05-18T06:59:37Z</time>
      </trkpt>
      <trkpt lat="43.60874" lon="3.82048">
        <ele>37.63</ele>
        <time>2014-05-18T06:59:38Z</time>
      </trkpt>
      <trkpt lat="43.60882" lon="3.82053">
        <ele>38.11</ele>
        <time>2014-05-18T06:59:39Z</time>
      </trkpt>
      <trkpt lat="43.60888" lon="3.82059">
        <ele>38.59</ele>
        <time>2014-05-18T06:59:40Z</time>
      </trkpt>
      <trkpt lat="43.60894" lon="3.82066">
        <ele>39.07</ele>
        <time>2014-05-18T06:59:41Z</time>
      </trkpt>
      <trkpt lat="43.60898" lon="3.82072">
        <ele>39.55</ele>
        <time>2014-05-18T06:59:42Z</time>
      </trkpt>
      <trkpt lat="43.60901" lon="3.82078">
        <ele>39.55</ele>
        <time>2014-05-18T06:59:43Z</time>
      </trkpt>
      <trkpt lat="43.60903" lon="3.82084">
        <ele>40.03</ele>
        <time>2014-05-18T06:59:44Z</time>
      </trkpt>
      <trkpt lat="43.60904" lon="3.82091">
        <ele>40.03</ele>
        <time>2014-05-18T06:59:45Z</time>
      </trkpt>
      <trkpt lat="43.60905" lon="3.82098">
        <ele>40.03</ele>
        <time>2014-05-18T06:59:46Z</time>
      </trkpt>
      <trkpt lat="43.60904" lon="3.82107">
        <ele>40.03</ele>
        <time>2014-05-18T06:59:47Z</time>
      </trkpt>
      <trkpt lat="43.60902" lon="3.82116">
        <ele>40.51</ele>
        <time>2014-05-18T06:59:48Z</time>
      </trkpt>
      <trkpt lat="43.60898" lon="3.82125">
        <ele>40.99</ele>
        <time>2014-05-18T06:59:49Z</time>
      </trkpt>
      <trkpt lat="43.60891" lon="3.82132">
        <ele>41.47</ele>
        <time>2014-05-18T06:59:50Z</time>
      </trkpt>
      <trkpt lat="43.6088" lon="3.82134">
        <ele>41.47</ele>
        <time>2014-05-18T06:59:51Z</time>
      </trkpt>
      <trkpt lat="43.60869" lon="3.82132">
        <ele>41.47</ele>
        <time>2014-05-18T06:59:52Z</time>
      </trkpt>
      <trkpt lat="43.60858" lon="3.82127">
        <ele>41.47</ele>
        <time>2014-05-18T06:59:53Z</time>
      </trkpt>
      <trkpt lat="43.60847" lon="3.82116">
        <ele>41.47</ele>
        <time>2014-05-18T06:59:54Z</time>
      </trkpt>
      <trkpt lat="43.60833" lon="3.82101">
        <ele>41.47</ele>
        <time>2014-05-18T06:59:55Z</time>
      </trkpt>
      <trkpt lat="43.60818" lon="3.82085">
        <ele>40.99</ele>
        <time>2014-05-18T06:59:56Z</time>
      </trkpt>
      <trkpt lat="43.60718" lon="3.81931">
        <ele>38.59</ele>
        <time>2014-05-18T07:00:03Z</time>
      </trkpt>
      <trkpt lat="43.60598" lon="3.81694">
        <ele>36.19</ele>
        <time>2014-05-18T07:00:12Z</time>
      </trkpt>
      <trkpt lat="43.60548" lon="3.8157">
        <ele>35.71</ele>
        <time>2014-05-18T07:00:18Z</time>
      </trkpt>
      <trkpt lat="43.60527" lon="3.81388">
        <ele>36.19</ele>
        <time>2014-05-18T07:00:26Z</time>
      </trkpt>
      <trkpt lat="43.60563" lon="3.81218">
        <ele>36.67</ele>
        <time>2014-05-18T07:00:33Z</time>
      </trkpt>
      <trkpt lat="43.60659" lon="3.81036">
        <ele>39.07</ele>
        <time>2014-05-18T07:00:42Z</time>
      </trkpt>
      <trkpt lat="43.60757" lon="3.80832">
        <ele>40.99</ele>
        <time>2014-05-18T07:00:52Z</time>
      </trkpt>
      <trkpt lat="43.60853" lon="3.80586">
        <ele>42.92</ele>
        <time>2014-05-18T07:01:03Z</time>
      </trkpt>
      <trkpt lat="43.60973" lon="3.80435">
        <ele>46.28</ele>
        <time>2014-05-18T07:01:12Z</time>
      </trkpt>
      <trkpt lat="43.61106" lon="3.80258">
        <ele>53.49</ele>
        <time>2014-05-18T07:01:21Z</time>
      </trkpt>
      <trkpt lat="43.6126" lon="3.80057">
        <ele>63.58</ele>
        <time>2014-05-18T07:01:31Z</time>
      </trkpt>
      <trkpt lat="43.61402" lon="3.79957">
        <ele>68.87</ele>
        <time>2014-05-18T07:01:39Z</time>
      </trkpt>
      <trkpt lat="43.61589" lon="3.79817">
        <ele>68.39</ele>
        <time>2014-05-18T07:01:49Z</time>
      </trkpt>
      <trkpt lat="43.61693" lon="3.79655">
        <ele>65.99</ele>
        <time>2014-05-18T07:01:56Z</time>
      </trkpt>
      <trkpt lat="43.61906" lon="3.79254">
        <ele>73.68</ele>
        <time>2014-05-18T07:02:12Z</time>
      </trkpt>
      <trkpt lat="43.62037" lon="3.79134">
        <ele>76.08</ele>
        <time>2014-05-18T07:02:19Z</time>
      </trkpt>
      <trkpt lat="43.62225" lon="3.79">
        <ele>78.48</ele>
        <time>2014-05-18T07:02:29Z</time>
      </trkpt>
      <trkpt lat="43.62378" lon="3.78833">
        <ele>84.73</ele>
        <time>2014-05-18T07:02:38Z</time>
      </trkpt>
      <trkpt lat="43.62521" lon="3.78624">
        <ele>93.87</ele>
        <time>2014-05-18T07:02:47Z</time>
      </trkpt>
      <trkpt lat="43.62707" lon="3.78377">
        <ele>100.11</ele>
        <time>2014-05-18T07:02:59Z</time>
      </trkpt>
      <trkpt lat="43.62867" lon="3.78127">
        <ele>104.92</ele>
        <time>2014-05-18T07:03:10Z</time>
      </trkpt>
      <trkpt lat="43.62919" lon="3.77949">
        <ele>106.36</ele>
        <time>2014-05-18T07:03:16Z</time>
      </trkpt>
      <trkpt lat="43.62923" lon="3.77756">
        <ele>105.88</ele>
        <time>2014-05-18T07:03:22Z</time>
      </trkpt>
      <trkpt lat="43.62902" lon="3.77506">
        <ele>104.44</ele>
        <time>2014-05-18T07:03:30Z</time>
      </trkpt>
      <trkpt lat="43.62925" lon="3.77296">
        <ele>107.32</ele>
        <time>2014-05-18T07:03:37Z</time>
      </trkpt>
      <trkpt lat="43.62996" lon="3.7699">
        <ele>111.17</ele>
        <time>2014-05-18T07:03:47Z</time>
      </trkpt>
      <trkpt lat="43.63096" lon="3.76561">
        <ele>122.71</ele>
        <time>2014-05-18T07:04:02Z</time>
      </trkpt>
      <trkpt lat="43.63151" lon="3.76336">
        <ele>126.55</ele>
        <time>2014-05-18T07:04:10Z</time>
      </trkpt>
      <trkpt lat="43.63206" lon="3.7618">
        <ele>128.95</ele>
        <time>2014-05-18T07:04:17Z</time>
      </trkpt>
      <trkpt lat="43.63293" lon="3.75987">
        <ele>131.84</ele>
        <time>2014-05-18T07:04:27Z</time>
      </trkpt>
      <trkpt lat="43.63363" lon="3.75862">
        <ele>136.64</ele>
        <time>2014-05-18T07:04:36Z</time>
      </trkpt>
      <trkpt lat="43.63394" lon="3.75818">
        <ele>139.05</ele>
        <time>2014-05-18T07:04:40Z</time>
      </trkpt>
      <trkpt lat="43.63402" lon="3.75809">
        <ele>140.01</ele>
        <time>2014-05-18T07:04:41Z</time>
      </trkpt>
      <trkpt lat="43.63412" lon="3.75802">
        <ele>140.49</ele>
        <time>2014-05-18T07:04:42Z</time>
      </trkpt>
      <trkpt lat="43.63422" lon="3.75797">
        <ele>140.97</ele>
        <time>2014-05-18T07:04:43Z</time>
      </trkpt>
      <trkpt lat="43.63433" lon="3.75793">
        <ele>141.45</ele>
        <time>2014-05-18T07:04:44Z</time>
      </trkpt>
      <trkpt lat="43.63443" lon="3.75792">
        <ele>141.93</ele>
        <time>2014-05-18T07:04:45Z</time>
      </trkpt>
      <trkpt lat="43.63453" lon="3.75792">
        <ele>142.41</ele>
        <time>2014-05-18T07:04:46Z</time>
      </trkpt>
      <trkpt lat="43.63462" lon="3.75793">
        <ele>142.41</ele>
        <time>2014-05-18T07:04:47Z</time>
      </trkpt>
      <trkpt lat="43.63471" lon="3.75795">
        <ele>142.89</ele>
        <time>2014-05-18T07:04:48Z</time>
      </trkpt>
      <trkpt lat="43.63478" lon="3.75798">
        <ele>143.37</ele>
        <time>2014-05-18T07:04:49Z</time>
      </trkpt>
      <trkpt lat="43.63487" lon="3.75802">
        <ele>143.37</ele>
        <time>2014-05-18T07:04:50Z</time>
      </trkpt>
      <trkpt lat="43.63495" lon="3.75808">
        <ele>143.37</ele>
        <time>2014-05-18T07:04:51Z</time>
      </trkpt>
      <trkpt lat="43.63503" lon="3.75815">
        <ele>143.37</ele>
        <time>2014-05-18T07:04:52Z</time>
      </trkpt>
      <trkpt lat="43.63509" lon="3.75822">
        <ele>143.85</ele>
        <time>2014-05-18T07:04:53Z</time>
      </trkpt>
      <trkpt lat="43.63515" lon="3.75829">
        <ele>143.85</ele>
        <time>2014-05-18T07:04:54Z</time>
      </trkpt>
      <trkpt lat="43.63537" lon="3.75856">
        <ele>143.85</ele>
        <time>2014-05-18T07:05:01Z</time>
      </trkpt>
      <trkpt lat="43.63566" lon="3.75894">
        <ele>143.85</ele>
        <time>2014-05-18T07:05:09Z</time>
      </trkpt>
      <trkpt lat="43.63569" lon="3.75905">
        <ele>143.85</ele>
        <time>2014-05-18T07:05:10Z</time>
      </trkpt>
      <trkpt lat="43.63573" lon="3.75916">
        <ele>143.37</ele>
        <time>2014-05-18T07:05:11Z</time>
      </trkpt>
      <trkpt lat="43.63575" lon="3.75929">
        <ele>143.37</ele>
        <time>2014-05-18T07:05:12Z</time>
      </trkpt>
      <trkpt lat="43.63575" lon="3.75943">
        <ele>142.89</ele>
        <time>2014-05-18T07:05:13Z</time>
      </trkpt>
      <trkpt lat="43.63573" lon="3.75957">
        <ele>142.41</ele>
        <time>2014-05-18T07:05:14Z</time>
      </trkpt>
      <trkpt lat="43.63566" lon="3.75973">
        <ele>142.41</ele>
        <time>2014-05-18T07:05:15Z</time>
      </trkpt>
      <trkpt lat="43.63554" lon="3.75986">
        <ele>142.41</ele>
        <time>2014-05-18T07:05:16Z</time>
      </trkpt>
      <trkpt lat="43.6354" lon="3.75994">
        <ele>141.93</ele>
        <time>2014-05-18T07:05:17Z</time>
      </trkpt>
      <trkpt lat="43.63524" lon="3.75998">
        <ele>141.93</ele>
        <time>2014-05-18T07:05:18Z</time>
      </trkpt>
      <trkpt lat="43.63506" lon="3.75999">
        <ele>141.45</ele>
        <time>2014-05-18T07:05:19Z</time>
      </trkpt>
      <trkpt lat="43.63488" lon="3.75998">
        <ele>141.45</ele>
        <time>2014-05-18T07:05:20Z</time>
      </trkpt>
      <trkpt lat="43.63352" lon="3.76015">
        <ele>137.13</ele>
        <time>2014-05-18T07:05:28Z</time>
      </trkpt>
      <trkpt lat="43.63336" lon="3.76025">
        <ele>136.64</ele>
        <time>2014-05-18T07:05:29Z</time>
      </trkpt>
      <trkpt lat="43.6332" lon="3.76037">
        <ele>136.16</ele>
        <time>2014-05-18T07:05:30Z</time>
      </trkpt>
      <trkpt lat="43.63306" lon="3.76051">
        <ele>135.2</ele>
        <time>2014-05-18T07:05:31Z</time>
      </trkpt>
      <trkpt lat="43.63292" lon="3.76067">
        <ele>134.24</ele>
        <time>2014-05-18T07:05:32Z</time>
      </trkpt>
      <trkpt lat="43.63279" lon="3.76085">
        <ele>133.76</ele>
        <time>2014-05-18T07:05:33Z</time>
      </trkpt>
      <trkpt lat="43.63267" lon="3.76104">
        <ele>132.8</ele>
        <time>2014-05-18T07:05:34Z</time>
      </trkpt>
      <trkpt lat="43.63256" lon="3.76124">
        <ele>132.32</ele>
        <time>2014-05-18T07:05:35Z</time>
      </trkpt>
      <trkpt lat="43.63194" lon="3.76284">
        <ele>126.55</ele>
        <time>2014-05-18T07:05:43Z</time>
      </trkpt>
      <trkpt lat="43.63166" lon="3.76416">
        <ele>120.78</ele>
        <time>2014-05-18T07:05:51Z</time>
      </trkpt>
      <trkpt lat="43.6315" lon="3.765">
        <ele>116.94</ele>
        <time>2014-05-18T07:05:58Z</time>
      </trkpt>
      <trkpt lat="43.63144" lon="3.76506">
        <ele>116.46</ele>
        <time>2014-05-18T07:05:59Z</time>
      </trkpt>
      <trkpt lat="43.63135" lon="3.76509">
        <ele>115.98</ele>
        <time>2014-05-18T07:06:00Z</time>
      </trkpt>
      <trkpt lat="43.63123" lon="3.7651">
        <ele>115.5</ele>
        <time>2014-05-18T07:06:01Z</time>
      </trkpt>
      <trkpt lat="43.63109" lon="3.7651">
        <ele>115.01</ele>
        <time>2014-05-18T07:06:02Z</time>
      </trkpt>
      <trkpt lat="43.63002" lon="3.76536">
        <ele>113.57</ele>
        <time>2014-05-18T07:06:08Z</time>
      </trkpt>
      <trkpt lat="43.62985" lon="3.76546">
        <ele>113.57</ele>
        <time>2014-05-18T07:06:09Z</time>
      </trkpt>
      <trkpt lat="43.62968" lon="3.76557">
        <ele>114.05</ele>
        <time>2014-05-18T07:06:10Z</time>
      </trkpt>
      <trkpt lat="43.62865" lon="3.7663">
        <ele>115.01</ele>
        <time>2014-05-18T07:06:18Z</time>
      </trkpt>
      <trkpt lat="43.62767" lon="3.76703">
        <ele>115.98</ele>
        <time>2014-05-18T07:06:29Z</time>
      </trkpt>
      <trkpt lat="43.62675" lon="3.76769">
        <ele>118.86</ele>
        <time>2014-05-18T07:06:40Z</time>
      </trkpt>
      <trkpt lat="43.62645" lon="3.76786">
        <ele>120.78</ele>
        <time>2014-05-18T07:06:46Z</time>
      </trkpt>
      <trkpt lat="43.62619" lon="3.76805">
        <ele>122.22</ele>
        <time>2014-05-18T07:06:57Z</time>
      </trkpt>
      <trkpt lat="43.62598" lon="3.76824">
        <ele>122.71</ele>
        <time>2014-05-18T07:07:11Z</time>
      </trkpt>
      <trkpt lat="43.62578" lon="3.76856">
        <ele>122.71</ele>
        <time>2014-05-18T07:07:27Z</time>
      </trkpt>
      <trkpt lat="43.62556" lon="3.76885">
        <ele>121.74</ele>
        <time>2014-05-18T07:07:44Z</time>
      </trkpt>
      <trkpt lat="43.62555" lon="3.76887">
        <ele>121.74</ele>
        <time>2014-05-18T07:08:01Z</time>
      </trkpt>
      <trkpt lat="43.62556" lon="3.76886">
        <ele>121.26</ele>
        <time>2014-05-18T07:08:27Z</time>
      </trkpt>
      <trkpt lat="43.62544" lon="3.76899">
        <ele>119.82</ele>
        <time>2014-05-18T07:13:39Z</time>
      </trkpt>
      <trkpt lat="43.62541" lon="3.76903">
        <ele>121.74</ele>
        <time>2014-05-18T07:14:27Z</time>
      </trkpt>
      <trkpt lat="43.62541" lon="3.76904">
        <ele>123.19</ele>
        <time>2014-05-18T07:15:11Z</time>
      </trkpt>
      <trkpt lat="43.62539" lon="3.76907">
        <ele>123.19</ele>
        <time>2014-05-18T07:15:36Z</time>
      </trkpt>
      <trkpt lat="43.62539" lon="3.76907">
        <ele>123.19</ele>
        <time>2014-05-18T07:16:15Z</time>
      </trkpt>
      <trkpt lat="43.62529" lon="3.76933">
        <ele>123.19</ele>
        <time>2014-05-18T07:16:21Z</time>
      </trkpt>
      <trkpt lat="43.62525" lon="3.7694">
        <ele>122.71</ele>
        <time>2014-05-18T07:16:22Z</time>
      </trkpt>
      <trkpt lat="43.6252" lon="3.76946">
        <ele>122.71</ele>
        <time>2014-05-18T07:16:23Z</time>
      </trkpt>
      <trkpt lat="43.62506" lon="3.76961">
        <ele>122.22</ele>
        <time>2014-05-18T07:16:25Z</time>
      </trkpt>
      <trkpt lat="43.62496" lon="3.76967">
        <ele>121.74</ele>
        <time>2014-05-18T07:16:26Z</time>
      </trkpt>
      <trkpt lat="43.62371" lon="3.77015">
        <ele>119.34</ele>
        <time>2014-05-18T07:16:37Z</time>
      </trkpt>
      <trkpt lat="43.62278" lon="3.77062">
        <ele>112.61</ele>
        <time>2014-05-18T07:16:44Z</time>
      </trkpt>
      <trkpt lat="43.62265" lon="3.77074">
        <ele>111.17</ele>
        <time>2014-05-18T07:16:45Z</time>
      </trkpt>
      <trkpt lat="43.62144" lon="3.77222">
        <ele>100.6</ele>
        <time>2014-05-18T07:16:55Z</time>
      </trkpt>
      <trkpt lat="43.62024" lon="3.77355">
        <ele>100.11</ele>
        <time>2014-05-18T07:17:05Z</time>
      </trkpt>
      <trkpt lat="43.61936" lon="3.77428">
        <ele>105.4</ele>
        <time>2014-05-18T07:17:14Z</time>
      </trkpt>
      <trkpt lat="43.61922" lon="3.77437">
        <ele>105.88</ele>
        <time>2014-05-18T07:17:16Z</time>
      </trkpt>
      <trkpt lat="43.61913" lon="3.77439">
        <ele>106.84</ele>
        <time>2014-05-18T07:17:17Z</time>
      </trkpt>
      <trkpt lat="43.61891" lon="3.7744">
        <ele>108.29</ele>
        <time>2014-05-18T07:17:19Z</time>
      </trkpt>
      <trkpt lat="43.61795" lon="3.77439">
        <ele>109.73</ele>
        <time>2014-05-18T07:17:28Z</time>
      </trkpt>
      <trkpt lat="43.61721" lon="3.77414">
        <ele>107.81</ele>
        <time>2014-05-18T07:17:35Z</time>
      </trkpt>
      <trkpt lat="43.6171" lon="3.77411">
        <ele>106.84</ele>
        <time>2014-05-18T07:17:36Z</time>
      </trkpt>
      <trkpt lat="43.61699" lon="3.7741">
        <ele>106.36</ele>
        <time>2014-05-18T07:17:37Z</time>
      </trkpt>
      <trkpt lat="43.61687" lon="3.77411">
        <ele>106.36</ele>
        <time>2014-05-18T07:17:38Z</time>
      </trkpt>
      <trkpt lat="43.61675" lon="3.77412">
        <ele>105.4</ele>
        <time>2014-05-18T07:17:39Z</time>
      </trkpt>
      <trkpt lat="43.61664" lon="3.77416">
        <ele>104.92</ele>
        <time>2014-05-18T07:17:40Z</time>
      </trkpt>
      <trkpt lat="43.61653" lon="3.77423">
        <ele>103.96</ele>
        <time>2014-05-18T07:17:41Z</time>
      </trkpt>
      <trkpt lat="43.61643" lon="3.77434">
        <ele>103</ele>
        <time>2014-05-18T07:17:42Z</time>
      </trkpt>
      <trkpt lat="43.61631" lon="3.77445">
        <ele>102.04</ele>
        <time>2014-05-18T07:17:43Z</time>
      </trkpt>
      <trkpt lat="43.6155" lon="3.77534">
        <ele>94.35</ele>
        <time>2014-05-18T07:17:52Z</time>
      </trkpt>
      <trkpt lat="43.61517" lon="3.77569">
        <ele>92.9</ele>
        <time>2014-05-18T07:17:56Z</time>
      </trkpt>
      <trkpt lat="43.61496" lon="3.77582">
        <ele>92.9</ele>
        <time>2014-05-18T07:17:59Z</time>
      </trkpt>
      <trkpt lat="43.6149" lon="3.77581">
        <ele>92.9</ele>
        <time>2014-05-18T07:18:00Z</time>
      </trkpt>
      <trkpt lat="43.61484" lon="3.77578">
        <ele>92.9</ele>
        <time>2014-05-18T07:18:01Z</time>
      </trkpt>
      <trkpt lat="43.61478" lon="3.77576">
        <ele>93.39</ele>
        <time>2014-05-18T07:18:02Z</time>
      </trkpt>
      <trkpt lat="43.61472" lon="3.77578">
        <ele>93.39</ele>
        <time>2014-05-18T07:18:03Z</time>
      </trkpt>
      <trkpt lat="43.61466" lon="3.77585">
        <ele>93.39</ele>
        <time>2014-05-18T07:18:04Z</time>
      </trkpt>
      <trkpt lat="43.61461" lon="3.77595">
        <ele>93.39</ele>
        <time>2014-05-18T07:18:05Z</time>
      </trkpt>
      <trkpt lat="43.61456" lon="3.77603">
        <ele>93.39</ele>
        <time>2014-05-18T07:18:06Z</time>
      </trkpt>
      <trkpt lat="43.61448" lon="3.77609">
        <ele>93.87</ele>
        <time>2014-05-18T07:18:07Z</time>
      </trkpt>
      <trkpt lat="43.61438" lon="3.77612">
        <ele>94.35</ele>
        <time>2014-05-18T07:18:08Z</time>
      </trkpt>
      <trkpt lat="43.61426" lon="3.77615">
        <ele>94.83</ele>
        <time>2014-05-18T07:18:09Z</time>
      </trkpt>
      <trkpt lat="43.61414" lon="3.77617">
        <ele>95.79</ele>
        <time>2014-05-18T07:18:10Z</time>
      </trkpt>
      <trkpt lat="43.61308" lon="3.77638">
        <ele>103.96</ele>
        <time>2014-05-18T07:18:20Z</time>
      </trkpt>
      <trkpt lat="43.61278" lon="3.77637">
        <ele>101.08</ele>
        <time>2014-05-18T07:18:26Z</time>
      </trkpt>
      <trkpt lat="43.61269" lon="3.77633">
        <ele>99.63</ele>
        <time>2014-05-18T07:18:31Z</time>
      </trkpt>
      <trkpt lat="43.61266" lon="3.77628">
        <ele>99.15</ele>
        <time>2014-05-18T07:18:32Z</time>
      </trkpt>
      <trkpt lat="43.61261" lon="3.77616">
        <ele>99.15</ele>
        <time>2014-05-18T07:18:33Z</time>
      </trkpt>
      <trkpt lat="43.61241" lon="3.77551">
        <ele>97.71</ele>
        <time>2014-05-18T07:18:38Z</time>
      </trkpt>
      <trkpt lat="43.61237" lon="3.77539">
        <ele>97.71</ele>
        <time>2014-05-18T07:18:39Z</time>
      </trkpt>
      <trkpt lat="43.61234" lon="3.77528">
        <ele>97.23</ele>
        <time>2014-05-18T07:18:40Z</time>
      </trkpt>
      <trkpt lat="43.61221" lon="3.77492">
        <ele>96.75</ele>
        <time>2014-05-18T07:18:44Z</time>
      </trkpt>
      <trkpt lat="43.61219" lon="3.77481">
        <ele>96.75</ele>
        <time>2014-05-18T07:18:45Z</time>
      </trkpt>
      <trkpt lat="43.61196" lon="3.77361">
        <ele>94.35</ele>
        <time>2014-05-18T07:18:55Z</time>
      </trkpt>
      <trkpt lat="43.61185" lon="3.77297">
        <ele>91.94</ele>
        <time>2014-05-18T07:19:00Z</time>
      </trkpt>
      <trkpt lat="43.6118" lon="3.77283">
        <ele>91.46</ele>
        <time>2014-05-18T07:19:01Z</time>
      </trkpt>
      <trkpt lat="43.61174" lon="3.77269">
        <ele>90.98</ele>
        <time>2014-05-18T07:19:02Z</time>
      </trkpt>
      <trkpt lat="43.61169" lon="3.77258">
        <ele>90.5</ele>
        <time>2014-05-18T07:19:03Z</time>
      </trkpt>
      <trkpt lat="43.61163" lon="3.77247">
        <ele>90.02</ele>
        <time>2014-05-18T07:19:04Z</time>
      </trkpt>
      <trkpt lat="43.61105" lon="3.77153">
        <ele>85.21</ele>
        <time>2014-05-18T07:19:12Z</time>
      </trkpt>
      <trkpt lat="43.60991" lon="3.77014">
        <ele>76.08</ele>
        <time>2014-05-18T07:19:22Z</time>
      </trkpt>
      <trkpt lat="43.6092" lon="3.76951">
        <ele>70.79</ele>
        <time>2014-05-18T07:19:29Z</time>
      </trkpt>
      <trkpt lat="43.60911" lon="3.76948">
        <ele>70.31</ele>
        <time>2014-05-18T07:19:30Z</time>
      </trkpt>
      <trkpt lat="43.60859" lon="3.76931">
        <ele>67.91</ele>
        <time>2014-05-18T07:19:35Z</time>
      </trkpt>
      <trkpt lat="43.60849" lon="3.76923">
        <ele>66.95</ele>
        <time>2014-05-18T07:19:36Z</time>
      </trkpt>
      <trkpt lat="43.60841" lon="3.76911">
        <ele>66.95</ele>
        <time>2014-05-18T07:19:37Z</time>
      </trkpt>
      <trkpt lat="43.60833" lon="3.76894">
        <ele>66.47</ele>
        <time>2014-05-18T07:19:38Z</time>
      </trkpt>
      <trkpt lat="43.60826" lon="3.76876">
        <ele>66.47</ele>
        <time>2014-05-18T07:19:39Z</time>
      </trkpt>
      <trkpt lat="43.60807" lon="3.76817">
        <ele>66.47</ele>
        <time>2014-05-18T07:19:42Z</time>
      </trkpt>
      <trkpt lat="43.6079" lon="3.7671">
        <ele>67.43</ele>
        <time>2014-05-18T07:19:47Z</time>
      </trkpt>
      <trkpt lat="43.60789" lon="3.76687">
        <ele>67.43</ele>
        <time>2014-05-18T07:19:48Z</time>
      </trkpt>
      <trkpt lat="43.60791" lon="3.76662">
        <ele>67.91</ele>
        <time>2014-05-18T07:19:49Z</time>
      </trkpt>
      <trkpt lat="43.60807" lon="3.76496">
        <ele>70.79</ele>
        <time>2014-05-18T07:19:56Z</time>
      </trkpt>
      <trkpt lat="43.60813" lon="3.76474">
        <ele>70.79</ele>
        <time>2014-05-18T07:19:57Z</time>
      </trkpt>
      <trkpt lat="43.6082" lon="3.76453">
        <ele>71.27</ele>
        <time>2014-05-18T07:19:58Z</time>
      </trkpt>
      <trkpt lat="43.60837" lon="3.7639">
        <ele>71.76</ele>
        <time>2014-05-18T07:20:01Z</time>
      </trkpt>
      <trkpt lat="43.60838" lon="3.76369">
        <ele>71.76</ele>
        <time>2014-05-18T07:20:02Z</time>
      </trkpt>
      <trkpt lat="43.60838" lon="3.76347">
        <ele>71.76</ele>
        <time>2014-05-18T07:20:03Z</time>
      </trkpt>
      <trkpt lat="43.60834" lon="3.7626">
        <ele>72.24</ele>
        <time>2014-05-18T07:20:07Z</time>
      </trkpt>
      <trkpt lat="43.6083" lon="3.76239">
        <ele>72.24</ele>
        <time>2014-05-18T07:20:08Z</time>
      </trkpt>
      <trkpt lat="43.60823" lon="3.76217">
        <ele>72.72</ele>
        <time>2014-05-18T07:20:09Z</time>
      </trkpt>
      <trkpt lat="43.60802" lon="3.76151">
        <ele>75.12</ele>
        <time>2014-05-18T07:20:12Z</time>
      </trkpt>
      <trkpt lat="43.60797" lon="3.76128">
        <ele>75.12</ele>
        <time>2014-05-18T07:20:13Z</time>
      </trkpt>
      <trkpt lat="43.60794" lon="3.76105">
        <ele>76.08</ele>
        <time>2014-05-18T07:20:14Z</time>
      </trkpt>
      <trkpt lat="43.60793" lon="3.7608">
        <ele>77.04</ele>
        <time>2014-05-18T07:20:15Z</time>
      </trkpt>
      <trkpt lat="43.60794" lon="3.76056">
        <ele>78.48</ele>
        <time>2014-05-18T07:20:16Z</time>
      </trkpt>
      <trkpt lat="43.60795" lon="3.76031">
        <ele>79.45</ele>
        <time>2014-05-18T07:20:17Z</time>
      </trkpt>
      <trkpt lat="43.60785" lon="3.75893">
        <ele>83.77</ele>
        <time>2014-05-18T07:20:24Z</time>
      </trkpt>
      <trkpt lat="43.60781" lon="3.75876">
        <ele>83.77</ele>
        <time>2014-05-18T07:20:25Z</time>
      </trkpt>
      <trkpt lat="43.60776" lon="3.7586">
        <ele>84.25</ele>
        <time>2014-05-18T07:20:26Z</time>
      </trkpt>
      <trkpt lat="43.60769" lon="3.75846">
        <ele>84.73</ele>
        <time>2014-05-18T07:20:27Z</time>
      </trkpt>
      <trkpt lat="43.6076" lon="3.75833">
        <ele>85.21</ele>
        <time>2014-05-18T07:20:28Z</time>
      </trkpt>
      <trkpt lat="43.60751" lon="3.75821">
        <ele>85.69</ele>
        <time>2014-05-18T07:20:29Z</time>
      </trkpt>
      <trkpt lat="43.60694" lon="3.75741">
        <ele>89.06</ele>
        <time>2014-05-18T07:20:36Z</time>
      </trkpt>
      <trkpt lat="43.60688" lon="3.75726">
        <ele>89.54</ele>
        <time>2014-05-18T07:20:37Z</time>
      </trkpt>
      <trkpt lat="43.60684" lon="3.7571">
        <ele>90.02</ele>
        <time>2014-05-18T07:20:38Z</time>
      </trkpt>
      <trkpt lat="43.60681" lon="3.75691">
        <ele>90.02</ele>
        <time>2014-05-18T07:20:39Z</time>
      </trkpt>
      <trkpt lat="43.60681" lon="3.75673">
        <ele>90.5</ele>
        <time>2014-05-18T07:20:40Z</time>
      </trkpt>
      <trkpt lat="43.60681" lon="3.75654">
        <ele>90.98</ele>
        <time>2014-05-18T07:20:41Z</time>
      </trkpt>
      <trkpt lat="43.60681" lon="3.75534">
        <ele>93.39</ele>
        <time>2014-05-18T07:20:48Z</time>
      </trkpt>
      <trkpt lat="43.60677" lon="3.75515">
        <ele>93.87</ele>
        <time>2014-05-18T07:20:49Z</time>
      </trkpt>
      <trkpt lat="43.60636" lon="3.7536">
        <ele>94.35</ele>
        <time>2014-05-18T07:20:55Z</time>
      </trkpt>
      <trkpt lat="43.6059" lon="3.75232">
        <ele>97.23</ele>
        <time>2014-05-18T07:21:01Z</time>
      </trkpt>
      <trkpt lat="43.60579" lon="3.75217">
        <ele>97.71</ele>
        <time>2014-05-18T07:21:02Z</time>
      </trkpt>
      <trkpt lat="43.60564" lon="3.75209">
        <ele>97.71</ele>
        <time>2014-05-18T07:21:03Z</time>
      </trkpt>
      <trkpt lat="43.60548" lon="3.75205">
        <ele>98.67</ele>
        <time>2014-05-18T07:21:04Z</time>
      </trkpt>
      <trkpt lat="43.60533" lon="3.75201">
        <ele>99.15</ele>
        <time>2014-05-18T07:21:05Z</time>
      </trkpt>
      <trkpt lat="43.60518" lon="3.75194">
        <ele>100.11</ele>
        <time>2014-05-18T07:21:06Z</time>
      </trkpt>
      <trkpt lat="43.60506" lon="3.7518">
        <ele>100.6</ele>
        <time>2014-05-18T07:21:07Z</time>
      </trkpt>
      <trkpt lat="43.60496" lon="3.7516">
        <ele>101.56</ele>
        <time>2014-05-18T07:21:08Z</time>
      </trkpt>
      <trkpt lat="43.60488" lon="3.75138">
        <ele>102.52</ele>
        <time>2014-05-18T07:21:09Z</time>
      </trkpt>
      <trkpt lat="43.60482" lon="3.75113">
        <ele>103.48</ele>
        <time>2014-05-18T07:21:10Z</time>
      </trkpt>
      <trkpt lat="43.60476" lon="3.75087">
        <ele>104.44</ele>
        <time>2014-05-18T07:21:11Z</time>
      </trkpt>
      <trkpt lat="43.60424" lon="3.7489">
        <ele>108.77</ele>
        <time>2014-05-18T07:21:19Z</time>
      </trkpt>
      <trkpt lat="43.60422" lon="3.74867">
        <ele>109.25</ele>
        <time>2014-05-18T07:21:20Z</time>
      </trkpt>
      <trkpt lat="43.60423" lon="3.74842">
        <ele>109.25</ele>
        <time>2014-05-18T07:21:21Z</time>
      </trkpt>
      <trkpt lat="43.60427" lon="3.74817">
        <ele>109.73</ele>
        <time>2014-05-18T07:21:22Z</time>
      </trkpt>
      <trkpt lat="43.6043" lon="3.74792">
        <ele>109.73</ele>
        <time>2014-05-18T07:21:23Z</time>
      </trkpt>
      <trkpt lat="43.60431" lon="3.74767">
        <ele>109.73</ele>
        <time>2014-05-18T07:21:24Z</time>
      </trkpt>
      <trkpt lat="43.6043" lon="3.74741">
        <ele>109.25</ele>
        <time>2014-05-18T07:21:25Z</time>
      </trkpt>
      <trkpt lat="43.60426" lon="3.74714">
        <ele>109.25</ele>
        <time>2014-05-18T07:21:26Z</time>
      </trkpt>
      <trkpt lat="43.60418" lon="3.74507">
        <ele>112.13</ele>
        <time>2014-05-18T07:21:33Z</time>
      </trkpt>
      <trkpt lat="43.60417" lon="3.74327">
        <ele>117.42</ele>
        <time>2014-05-18T07:21:40Z</time>
      </trkpt>
      <trkpt lat="43.60422" lon="3.74078">
        <ele>119.34</ele>
        <time>2014-05-18T07:21:52Z</time>
      </trkpt>
      <trkpt lat="43.60428" lon="3.73979">
        <ele>122.71</ele>
        <time>2014-05-18T07:21:59Z</time>
      </trkpt>
      <trkpt lat="43.60431" lon="3.73968">
        <ele>122.71</ele>
        <time>2014-05-18T07:22:00Z</time>
      </trkpt>
      <trkpt lat="43.60435" lon="3.73956">
        <ele>122.71</ele>
        <time>2014-05-18T07:22:01Z</time>
      </trkpt>
      <trkpt lat="43.60441" lon="3.73942">
        <ele>123.67</ele>
        <time>2014-05-18T07:22:02Z</time>
      </trkpt>
      <trkpt lat="43.60448" lon="3.73929">
        <ele>124.15</ele>
        <time>2014-05-18T07:22:03Z</time>
      </trkpt>
      <trkpt lat="43.60455" lon="3.73916">
        <ele>124.63</ele>
        <time>2014-05-18T07:22:04Z</time>
      </trkpt>
      <trkpt lat="43.60464" lon="3.73904">
        <ele>125.11</ele>
        <time>2014-05-18T07:22:05Z</time>
      </trkpt>
      <trkpt lat="43.60472" lon="3.73891">
        <ele>125.59</ele>
        <time>2014-05-18T07:22:06Z</time>
      </trkpt>
      <trkpt lat="43.60478" lon="3.73877">
        <ele>126.07</ele>
        <time>2014-05-18T07:22:07Z</time>
      </trkpt>
      <trkpt lat="43.60482" lon="3.7386">
        <ele>126.55</ele>
        <time>2014-05-18T07:22:08Z</time>
      </trkpt>
      <trkpt lat="43.60484" lon="3.73842">
        <ele>127.51</ele>
        <time>2014-05-18T07:22:09Z</time>
      </trkpt>
      <trkpt lat="43.60486" lon="3.7382">
        <ele>128.47</ele>
        <time>2014-05-18T07:22:10Z</time>
      </trkpt>
      <trkpt lat="43.60499" lon="3.73705">
        <ele>135.68</ele>
        <time>2014-05-18T07:22:17Z</time>
      </trkpt>
      <trkpt lat="43.60502" lon="3.73679">
        <ele>139.05</ele>
        <time>2014-05-18T07:22:24Z</time>
      </trkpt>
      <trkpt lat="43.60503" lon="3.73667">
        <ele>141.45</ele>
        <time>2014-05-18T07:22:31Z</time>
      </trkpt>
      <trkpt lat="43.60502" lon="3.73661">
        <ele>141.45</ele>
        <time>2014-05-18T07:22:32Z</time>
      </trkpt>
      <trkpt lat="43.60501" lon="3.73589">
        <ele>140.49</ele>
        <time>2014-05-18T07:22:37Z</time>
      </trkpt>
      <trkpt lat="43.60502" lon="3.73548">
        <ele>140.97</ele>
        <time>2014-05-18T07:22:43Z</time>
      </trkpt>
      <trkpt lat="43.60505" lon="3.73509">
        <ele>141.45</ele>
        <time>2014-05-18T07:22:49Z</time>
      </trkpt>
      <trkpt lat="43.6051" lon="3.73482">
        <ele>140.97</ele>
        <time>2014-05-18T07:22:51Z</time>
      </trkpt>
      <trkpt lat="43.60513" lon="3.73469">
        <ele>140.49</ele>
        <time>2014-05-18T07:22:52Z</time>
      </trkpt>
      <trkpt lat="43.60519" lon="3.73456">
        <ele>140.49</ele>
        <time>2014-05-18T07:22:53Z</time>
      </trkpt>
      <trkpt lat="43.6053" lon="3.73448">
        <ele>140.97</ele>
        <time>2014-05-18T07:22:54Z</time>
      </trkpt>
      <trkpt lat="43.60542" lon="3.73446">
        <ele>140.97</ele>
        <time>2014-05-18T07:22:55Z</time>
      </trkpt>
      <trkpt lat="43.60552" lon="3.73444">
        <ele>141.45</ele>
        <time>2014-05-18T07:22:56Z</time>
      </trkpt>
      <trkpt lat="43.60562" lon="3.73446">
        <ele>141.45</ele>
        <time>2014-05-18T07:22:57Z</time>
      </trkpt>
      <trkpt lat="43.60572" lon="3.73448">
        <ele>141.45</ele>
        <time>2014-05-18T07:22:58Z</time>
      </trkpt>
      <trkpt lat="43.6058" lon="3.73451">
        <ele>141.45</ele>
        <time>2014-05-18T07:22:59Z</time>
      </trkpt>
      <trkpt lat="43.60605" lon="3.73456">
        <ele>142.41</ele>
        <time>2014-05-18T07:23:02Z</time>
      </trkpt>
      <trkpt lat="43.60614" lon="3.73458">
        <ele>142.41</ele>
        <time>2014-05-18T07:23:03Z</time>
      </trkpt>
      <trkpt lat="43.60623" lon="3.73455">
        <ele>142.41</ele>
        <time>2014-05-18T07:23:04Z</time>
      </trkpt>
      <trkpt lat="43.60632" lon="3.73446">
        <ele>142.41</ele>
        <time>2014-05-18T07:23:05Z</time>
      </trkpt>
      <trkpt lat="43.60637" lon="3.73431">
        <ele>142.89</ele>
        <time>2014-05-18T07:23:06Z</time>
      </trkpt>
      <trkpt lat="43.60641" lon="3.73416">
        <ele>143.37</ele>
        <time>2014-05-18T07:23:07Z</time>
      </trkpt>
      <trkpt lat="43.60644" lon="3.73403">
        <ele>144.34</ele>
        <time>2014-05-18T07:23:08Z</time>
      </trkpt>
      <trkpt lat="43.60669" lon="3.73301">
        <ele>148.18</ele>
        <time>2014-05-18T07:23:14Z</time>
      </trkpt>
      <trkpt lat="43.6071" lon="3.73117">
        <ele>152.99</ele>
        <time>2014-05-18T07:23:21Z</time>
      </trkpt>
      <trkpt lat="43.60721" lon="3.72994">
        <ele>157.79</ele>
        <time>2014-05-18T07:23:27Z</time>
      </trkpt>
      <trkpt lat="43.60733" lon="3.72871">
        <ele>163.56</ele>
        <time>2014-05-18T07:23:36Z</time>
      </trkpt>
      <trkpt lat="43.60763" lon="3.72739">
        <ele>170.77</ele>
        <time>2014-05-18T07:23:50Z</time>
      </trkpt>
      <trkpt lat="43.60767" lon="3.72613">
        <ele>175.58</ele>
        <time>2014-05-18T07:24:03Z</time>
      </trkpt>
      <trkpt lat="43.60761" lon="3.72578">
        <ele>176.06</ele>
        <time>2014-05-18T07:24:06Z</time>
      </trkpt>
      <trkpt lat="43.60756" lon="3.72562">
        <ele>177.5</ele>
        <time>2014-05-18T07:24:07Z</time>
      </trkpt>
      <trkpt lat="43.60717" lon="3.72447">
        <ele>181.35</ele>
        <time>2014-05-18T07:24:12Z</time>
      </trkpt>
      <trkpt lat="43.60704" lon="3.72374">
        <ele>183.27</ele>
        <time>2014-05-18T07:24:15Z</time>
      </trkpt>
      <trkpt lat="43.60703" lon="3.7235">
        <ele>183.75</ele>
        <time>2014-05-18T07:24:16Z</time>
      </trkpt>
      <trkpt lat="43.60704" lon="3.72327">
        <ele>184.71</ele>
        <time>2014-05-18T07:24:17Z</time>
      </trkpt>
      <trkpt lat="43.60707" lon="3.72306">
        <ele>185.19</ele>
        <time>2014-05-18T07:24:18Z</time>
      </trkpt>
      <trkpt lat="43.60711" lon="3.72285">
        <ele>186.15</ele>
        <time>2014-05-18T07:24:19Z</time>
      </trkpt>
      <trkpt lat="43.60716" lon="3.72267">
        <ele>186.15</ele>
        <time>2014-05-18T07:24:20Z</time>
      </trkpt>
      <trkpt lat="43.60724" lon="3.72251">
        <ele>186.15</ele>
        <time>2014-05-18T07:24:21Z</time>
      </trkpt>
      <trkpt lat="43.60736" lon="3.72239">
        <ele>186.63</ele>
        <time>2014-05-18T07:24:22Z</time>
      </trkpt>
      <trkpt lat="43.60749" lon="3.72225">
        <ele>187.11</ele>
        <time>2014-05-18T07:24:23Z</time>
      </trkpt>
      <trkpt lat="43.60763" lon="3.72213">
        <ele>187.59</ele>
        <time>2014-05-18T07:24:24Z</time>
      </trkpt>
      <trkpt lat="43.60778" lon="3.72203">
        <ele>189.04</ele>
        <time>2014-05-18T07:24:25Z</time>
      </trkpt>
      <trkpt lat="43.60793" lon="3.72197">
        <ele>189.04</ele>
        <time>2014-05-18T07:24:26Z</time>
      </trkpt>
      <trkpt lat="43.60809" lon="3.72195">
        <ele>190.48</ele>
        <time>2014-05-18T07:24:27Z</time>
      </trkpt>
      <trkpt lat="43.60827" lon="3.722">
        <ele>190</ele>
        <time>2014-05-18T07:24:28Z</time>
      </trkpt>
      <trkpt lat="43.60843" lon="3.72209">
        <ele>190</ele>
        <time>2014-05-18T07:24:29Z</time>
      </trkpt>
      <trkpt lat="43.60858" lon="3.72226">
        <ele>190.96</ele>
        <time>2014-05-18T07:24:30Z</time>
      </trkpt>
      <trkpt lat="43.60869" lon="3.72241">
        <ele>191.44</ele>
        <time>2014-05-18T07:24:31Z</time>
      </trkpt>
      <trkpt lat="43.6088" lon="3.72257">
        <ele>192.4</ele>
        <time>2014-05-18T07:24:32Z</time>
      </trkpt>
      <trkpt lat="43.60891" lon="3.72268">
        <ele>192.88</ele>
        <time>2014-05-18T07:24:33Z</time>
      </trkpt>
      <trkpt lat="43.60903" lon="3.72274">
        <ele>193.84</ele>
        <time>2014-05-18T07:24:34Z</time>
      </trkpt>
      <trkpt lat="43.60916" lon="3.72275">
        <ele>193.84</ele>
        <time>2014-05-18T07:24:35Z</time>
      </trkpt>
      <trkpt lat="43.60929" lon="3.72271">
        <ele>194.8</ele>
        <time>2014-05-18T07:24:36Z</time>
      </trkpt>
      <trkpt lat="43.60941" lon="3.72266">
        <ele>194.32</ele>
        <time>2014-05-18T07:24:37Z</time>
      </trkpt>
      <trkpt lat="43.60953" lon="3.72256">
        <ele>193.84</ele>
        <time>2014-05-18T07:24:38Z</time>
      </trkpt>
      <trkpt lat="43.60962" lon="3.72241">
        <ele>194.32</ele>
        <time>2014-05-18T07:24:39Z</time>
      </trkpt>
      <trkpt lat="43.60969" lon="3.72223">
        <ele>194.8</ele>
        <time>2014-05-18T07:24:40Z</time>
      </trkpt>
      <trkpt lat="43.60975" lon="3.72202">
        <ele>194.8</ele>
        <time>2014-05-18T07:24:41Z</time>
      </trkpt>
      <trkpt lat="43.6098" lon="3.72176">
        <ele>195.28</ele>
        <time>2014-05-18T07:24:42Z</time>
      </trkpt>
      <trkpt lat="43.60984" lon="3.72148">
        <ele>194.32</ele>
        <time>2014-05-18T07:24:43Z</time>
      </trkpt>
      <trkpt lat="43.60989" lon="3.7212">
        <ele>195.28</ele>
        <time>2014-05-18T07:24:44Z</time>
      </trkpt>
      <trkpt lat="43.61015" lon="3.71867">
        <ele>201.53</ele>
        <time>2014-05-18T07:24:53Z</time>
      </trkpt>
      <trkpt lat="43.61012" lon="3.71841">
        <ele>202.01</ele>
        <time>2014-05-18T07:24:54Z</time>
      </trkpt>
      <trkpt lat="43.61008" lon="3.71791">
        <ele>202.49</ele>
        <time>2014-05-18T07:24:56Z</time>
      </trkpt>
      <trkpt lat="43.61009" lon="3.71766">
        <ele>202.98</ele>
        <time>2014-05-18T07:24:57Z</time>
      </trkpt>
      <trkpt lat="43.61013" lon="3.71741">
        <ele>202.49</ele>
        <time>2014-05-18T07:24:58Z</time>
      </trkpt>
      <trkpt lat="43.61036" lon="3.71654">
        <ele>200.57</ele>
        <time>2014-05-18T07:25:02Z</time>
      </trkpt>
      <trkpt lat="43.61047" lon="3.71639">
        <ele>199.61</ele>
        <time>2014-05-18T07:25:03Z</time>
      </trkpt>
      <trkpt lat="43.61061" lon="3.71633">
        <ele>199.61</ele>
        <time>2014-05-18T07:25:04Z</time>
      </trkpt>
      <trkpt lat="43.61076" lon="3.71624">
        <ele>200.57</ele>
        <time>2014-05-18T07:25:05Z</time>
      </trkpt>
      <trkpt lat="43.61091" lon="3.71615">
        <ele>200.57</ele>
        <time>2014-05-18T07:25:06Z</time>
      </trkpt>
      <trkpt lat="43.61104" lon="3.716">
        <ele>200.57</ele>
        <time>2014-05-18T07:25:07Z</time>
      </trkpt>
      <trkpt lat="43.61116" lon="3.71581">
        <ele>200.57</ele>
        <time>2014-05-18T07:25:08Z</time>
      </trkpt>
      <trkpt lat="43.61126" lon="3.71559">
        <ele>201.05</ele>
        <time>2014-05-18T07:25:09Z</time>
      </trkpt>
      <trkpt lat="43.61135" lon="3.71534">
        <ele>201.53</ele>
        <time>2014-05-18T07:25:10Z</time>
      </trkpt>
      <trkpt lat="43.61144" lon="3.71506">
        <ele>201.53</ele>
        <time>2014-05-18T07:25:11Z</time>
      </trkpt>
      <trkpt lat="43.61151" lon="3.71477">
        <ele>201.05</ele>
        <time>2014-05-18T07:25:12Z</time>
      </trkpt>
      <trkpt lat="43.61194" lon="3.71309">
        <ele>199.61</ele>
        <time>2014-05-18T07:25:19Z</time>
      </trkpt>
      <trkpt lat="43.61202" lon="3.71289">
        <ele>199.13</ele>
        <time>2014-05-18T07:25:20Z</time>
      </trkpt>
      <trkpt lat="43.61215" lon="3.71271">
        <ele>199.13</ele>
        <time>2014-05-18T07:25:21Z</time>
      </trkpt>
      <trkpt lat="43.61231" lon="3.71252">
        <ele>198.65</ele>
        <time>2014-05-18T07:25:22Z</time>
      </trkpt>
      <trkpt lat="43.614" lon="3.71078">
        <ele>194.8</ele>
        <time>2014-05-18T07:25:31Z</time>
      </trkpt>
      <trkpt lat="43.6142" lon="3.71064">
        <ele>194.8</ele>
        <time>2014-05-18T07:25:32Z</time>
      </trkpt>
      <trkpt lat="43.61442" lon="3.71052">
        <ele>194.8</ele>
        <time>2014-05-18T07:25:33Z</time>
      </trkpt>
      <trkpt lat="43.6167" lon="3.70924">
        <ele>187.59</ele>
        <time>2014-05-18T07:25:44Z</time>
      </trkpt>
      <trkpt lat="43.61706" lon="3.70909">
        <ele>186.15</ele>
        <time>2014-05-18T07:25:46Z</time>
      </trkpt>
      <trkpt lat="43.61727" lon="3.7091">
        <ele>185.19</ele>
        <time>2014-05-18T07:25:47Z</time>
      </trkpt>
      <trkpt lat="43.61748" lon="3.70913">
        <ele>184.71</ele>
        <time>2014-05-18T07:25:48Z</time>
      </trkpt>
      <trkpt lat="43.61931" lon="3.70939">
        <ele>177.5</ele>
        <time>2014-05-18T07:25:57Z</time>
      </trkpt>
      <trkpt lat="43.61953" lon="3.70936">
        <ele>176.54</ele>
        <time>2014-05-18T07:25:58Z</time>
      </trkpt>
      <trkpt lat="43.62115" lon="3.70885">
        <ele>169.33</ele>
        <time>2014-05-18T07:26:06Z</time>
      </trkpt>
      <trkpt lat="43.62134" lon="3.70872">
        <ele>167.89</ele>
        <time>2014-05-18T07:26:07Z</time>
      </trkpt>
      <trkpt lat="43.6215" lon="3.7085">
        <ele>166.45</ele>
        <time>2014-05-18T07:26:08Z</time>
      </trkpt>
      <trkpt lat="43.62166" lon="3.70822">
        <ele>165.48</ele>
        <time>2014-05-18T07:26:09Z</time>
      </trkpt>
      <trkpt lat="43.62289" lon="3.70617">
        <ele>161.64</ele>
        <time>2014-05-18T07:26:17Z</time>
      </trkpt>
      <trkpt lat="43.62318" lon="3.70579">
        <ele>161.16</ele>
        <time>2014-05-18T07:26:19Z</time>
      </trkpt>
      <trkpt lat="43.62335" lon="3.70569">
        <ele>161.16</ele>
        <time>2014-05-18T07:26:20Z</time>
      </trkpt>
      <trkpt lat="43.62354" lon="3.70563">
        <ele>161.16</ele>
        <time>2014-05-18T07:26:21Z</time>
      </trkpt>
      <trkpt lat="43.62375" lon="3.70558">
        <ele>161.16</ele>
        <time>2014-05-18T07:26:22Z</time>
      </trkpt>
      <trkpt lat="43.62398" lon="3.70553">
        <ele>160.68</ele>
        <time>2014-05-18T07:26:23Z</time>
      </trkpt>
      <trkpt lat="43.62605" lon="3.70507">
        <ele>158.75</ele>
        <time>2014-05-18T07:26:32Z</time>
      </trkpt>
      <trkpt lat="43.62768" lon="3.70414">
        <ele>156.83</ele>
        <time>2014-05-18T07:26:39Z</time>
      </trkpt>
      <trkpt lat="43.62936" lon="3.7032">
        <ele>150.1</ele>
        <time>2014-05-18T07:26:47Z</time>
      </trkpt>
      <trkpt lat="43.63027" lon="3.70306">
        <ele>144.82</ele>
        <time>2014-05-18T07:26:53Z</time>
      </trkpt>
      <trkpt lat="43.63057" lon="3.70308">
        <ele>143.37</ele>
        <time>2014-05-18T07:26:58Z</time>
      </trkpt>
      <trkpt lat="43.63071" lon="3.70313">
        <ele>143.37</ele>
        <time>2014-05-18T07:27:12Z</time>
      </trkpt>
      <trkpt lat="43.63067" lon="3.70313">
        <ele>144.82</ele>
        <time>2014-05-18T07:27:46Z</time>
      </trkpt>
      <trkpt lat="43.63068" lon="3.70312">
        <ele>145.78</ele>
        <time>2014-05-18T07:30:19Z</time>
      </trkpt>
      <trkpt lat="43.63088" lon="3.70311">
        <ele>141.93</ele>
        <time>2014-05-18T07:31:11Z</time>
      </trkpt>
      <trkpt lat="43.63108" lon="3.70308">
        <ele>141.45</ele>
        <time>2014-05-18T07:31:20Z</time>
      </trkpt>
      <trkpt lat="43.63118" lon="3.70306">
        <ele>140.97</ele>
        <time>2014-05-18T07:31:24Z</time>
      </trkpt>
      <trkpt lat="43.6312" lon="3.70303">
        <ele>140.49</ele>
        <time>2014-05-18T07:31:25Z</time>
      </trkpt>
      <trkpt lat="43.63121" lon="3.70296">
        <ele>140.49</ele>
        <time>2014-05-18T07:31:26Z</time>
      </trkpt>
      <trkpt lat="43.6312" lon="3.70282">
        <ele>140.01</ele>
        <time>2014-05-18T07:31:27Z</time>
      </trkpt>
      <trkpt lat="43.63117" lon="3.70268">
        <ele>139.53</ele>
        <time>2014-05-18T07:31:28Z</time>
      </trkpt>
      <trkpt lat="43.63113" lon="3.70253">
        <ele>140.01</ele>
        <time>2014-05-18T07:31:29Z</time>
      </trkpt>
      <trkpt lat="43.63068" lon="3.70069">
        <ele>139.53</ele>
        <time>2014-05-18T07:31:40Z</time>
      </trkpt>
      <trkpt lat="43.63011" lon="3.69835">
        <ele>140.01</ele>
        <time>2014-05-18T07:31:50Z</time>
      </trkpt>
      <trkpt lat="43.62986" lon="3.69703">
        <ele>139.53</ele>
        <time>2014-05-18T07:31:55Z</time>
      </trkpt>
      <trkpt lat="43.62985" lon="3.69676">
        <ele>139.05</ele>
        <time>2014-05-18T07:31:56Z</time>
      </trkpt>
      <trkpt lat="43.62987" lon="3.69648">
        <ele>139.05</ele>
        <time>2014-05-18T07:31:57Z</time>
      </trkpt>
      <trkpt lat="43.62991" lon="3.6962">
        <ele>138.57</ele>
        <time>2014-05-18T07:31:58Z</time>
      </trkpt>
      <trkpt lat="43.62997" lon="3.69592">
        <ele>137.61</ele>
        <time>2014-05-18T07:31:59Z</time>
      </trkpt>
      <trkpt lat="43.63005" lon="3.69565">
        <ele>137.13</ele>
        <time>2014-05-18T07:32:00Z</time>
      </trkpt>
      <trkpt lat="43.63013" lon="3.6954">
        <ele>136.64</ele>
        <time>2014-05-18T07:32:01Z</time>
      </trkpt>
      <trkpt lat="43.63037" lon="3.69451">
        <ele>135.68</ele>
        <time>2014-05-18T07:32:05Z</time>
      </trkpt>
      <trkpt lat="43.63039" lon="3.69433">
        <ele>135.68</ele>
        <time>2014-05-18T07:32:06Z</time>
      </trkpt>
      <trkpt lat="43.63042" lon="3.69402">
        <ele>136.16</ele>
        <time>2014-05-18T07:32:08Z</time>
      </trkpt>
      <trkpt lat="43.63046" lon="3.69388">
        <ele>136.16</ele>
        <time>2014-05-18T07:32:09Z</time>
      </trkpt>
      <trkpt lat="43.63052" lon="3.69373">
        <ele>135.68</ele>
        <time>2014-05-18T07:32:10Z</time>
      </trkpt>
      <trkpt lat="43.6306" lon="3.6936">
        <ele>135.68</ele>
        <time>2014-05-18T07:32:11Z</time>
      </trkpt>
      <trkpt lat="43.63073" lon="3.69354">
        <ele>135.68</ele>
        <time>2014-05-18T07:32:12Z</time>
      </trkpt>
      <trkpt lat="43.63089" lon="3.69351">
        <ele>135.68</ele>
        <time>2014-05-18T07:32:13Z</time>
      </trkpt>
      <trkpt lat="43.63106" lon="3.69349">
        <ele>135.68</ele>
        <time>2014-05-18T07:32:14Z</time>
      </trkpt>
      <trkpt lat="43.63124" lon="3.69349">
        <ele>135.2</ele>
        <time>2014-05-18T07:32:15Z</time>
      </trkpt>
      <trkpt lat="43.63275" lon="3.69317">
        <ele>133.76</ele>
        <time>2014-05-18T07:32:23Z</time>
      </trkpt>
      <trkpt lat="43.63443" lon="3.69287">
        <ele>132.8</ele>
        <time>2014-05-18T07:32:32Z</time>
      </trkpt>
      <trkpt lat="43.63461" lon="3.69291">
        <ele>132.8</ele>
        <time>2014-05-18T07:32:33Z</time>
      </trkpt>
      <trkpt lat="43.63481" lon="3.69302">
        <ele>132.8</ele>
        <time>2014-05-18T07:32:34Z</time>
      </trkpt>
      <trkpt lat="43.63501" lon="3.69317">
        <ele>132.32</ele>
        <time>2014-05-18T07:32:35Z</time>
      </trkpt>
      <trkpt lat="43.63519" lon="3.69334">
        <ele>132.8</ele>
        <time>2014-05-18T07:32:36Z</time>
      </trkpt>
      <trkpt lat="43.63536" lon="3.69351">
        <ele>132.8</ele>
        <time>2014-05-18T07:32:37Z</time>
      </trkpt>
      <trkpt lat="43.63678" lon="3.69433">
        <ele>128.95</ele>
        <time>2014-05-18T07:32:44Z</time>
      </trkpt>
      <trkpt lat="43.6384" lon="3.69492">
        <ele>129.92</ele>
        <time>2014-05-18T07:32:52Z</time>
      </trkpt>
      <trkpt lat="43.63968" lon="3.69533">
        <ele>129.43</ele>
        <time>2014-05-18T07:33:00Z</time>
      </trkpt>
      <trkpt lat="43.64041" lon="3.69529">
        <ele>129.92</ele>
        <time>2014-05-18T07:33:06Z</time>
      </trkpt>
      <trkpt lat="43.64086" lon="3.69533">
        <ele>130.4</ele>
        <time>2014-05-18T07:33:12Z</time>
      </trkpt>
      <trkpt lat="43.64092" lon="3.69536">
        <ele>130.4</ele>
        <time>2014-05-18T07:33:13Z</time>
      </trkpt>
      <trkpt lat="43.64097" lon="3.69541">
        <ele>130.88</ele>
        <time>2014-05-18T07:33:14Z</time>
      </trkpt>
      <trkpt lat="43.64104" lon="3.69545">
        <ele>130.88</ele>
        <time>2014-05-18T07:33:15Z</time>
      </trkpt>
      <trkpt lat="43.64111" lon="3.69546">
        <ele>130.88</ele>
        <time>2014-05-18T07:33:16Z</time>
      </trkpt>
      <trkpt lat="43.64119" lon="3.69544">
        <ele>130.4</ele>
        <time>2014-05-18T07:33:17Z</time>
      </trkpt>
      <trkpt lat="43.64128" lon="3.69543">
        <ele>130.4</ele>
        <time>2014-05-18T07:33:18Z</time>
      </trkpt>
      <trkpt lat="43.64138" lon="3.69544">
        <ele>130.4</ele>
        <time>2014-05-18T07:33:19Z</time>
      </trkpt>
      <trkpt lat="43.64148" lon="3.69548">
        <ele>129.92</ele>
        <time>2014-05-18T07:33:20Z</time>
      </trkpt>
      <trkpt lat="43.64158" lon="3.69551">
        <ele>129.43</ele>
        <time>2014-05-18T07:33:21Z</time>
      </trkpt>
      <trkpt lat="43.64282" lon="3.69599">
        <ele>125.59</ele>
        <time>2014-05-18T07:33:35Z</time>
      </trkpt>
      <trkpt lat="43.64287" lon="3.69605">
        <ele>125.59</ele>
        <time>2014-05-18T07:33:36Z</time>
      </trkpt>
      <trkpt lat="43.64293" lon="3.69611">
        <ele>125.59</ele>
        <time>2014-05-18T07:33:37Z</time>
      </trkpt>
      <trkpt lat="43.643" lon="3.69612">
        <ele>125.59</ele>
        <time>2014-05-18T07:33:38Z</time>
      </trkpt>
      <trkpt lat="43.64307" lon="3.6961">
        <ele>125.11</ele>
        <time>2014-05-18T07:33:39Z</time>
      </trkpt>
      <trkpt lat="43.64315" lon="3.69609">
        <ele>125.11</ele>
        <time>2014-05-18T07:33:40Z</time>
      </trkpt>
      <trkpt lat="43.64323" lon="3.69609">
        <ele>125.11</ele>
        <time>2014-05-18T07:33:41Z</time>
      </trkpt>
      <trkpt lat="43.6433" lon="3.69611">
        <ele>125.11</ele>
        <time>2014-05-18T07:33:42Z</time>
      </trkpt>
      <trkpt lat="43.64336" lon="3.69612">
        <ele>124.63</ele>
        <time>2014-05-18T07:33:43Z</time>
      </trkpt>
      <trkpt lat="43.6443" lon="3.69634">
        <ele>124.63</ele>
        <time>2014-05-18T07:33:57Z</time>
      </trkpt>
      <trkpt lat="43.64516" lon="3.69666">
        <ele>126.55</ele>
        <time>2014-05-18T07:34:09Z</time>
      </trkpt>
      <trkpt lat="43.64631" lon="3.69705">
        <ele>126.55</ele>
        <time>2014-05-18T07:34:24Z</time>
      </trkpt>
      <trkpt lat="43.64707" lon="3.69728">
        <ele>127.03</ele>
        <time>2014-05-18T07:34:36Z</time>
      </trkpt>
      <trkpt lat="43.6471" lon="3.69732">
        <ele>127.03</ele>
        <time>2014-05-18T07:34:37Z</time>
      </trkpt>
      <trkpt lat="43.64712" lon="3.69737">
        <ele>127.03</ele>
        <time>2014-05-18T07:34:38Z</time>
      </trkpt>
      <trkpt lat="43.64712" lon="3.69744">
        <ele>126.55</ele>
        <time>2014-05-18T07:34:39Z</time>
      </trkpt>
      <trkpt lat="43.6471" lon="3.69754">
        <ele>126.07</ele>
        <time>2014-05-18T07:34:40Z</time>
      </trkpt>
      <trkpt lat="43.64707" lon="3.69765">
        <ele>125.59</ele>
        <time>2014-05-18T07:34:41Z</time>
      </trkpt>
      <trkpt lat="43.64704" lon="3.69777">
        <ele>125.59</ele>
        <time>2014-05-18T07:34:42Z</time>
      </trkpt>
      <trkpt lat="43.64676" lon="3.69889">
        <ele>123.67</ele>
        <time>2014-05-18T07:34:54Z</time>
      </trkpt>
      <trkpt lat="43.64676" lon="3.69908">
        <ele>123.19</ele>
        <time>2014-05-18T07:35:01Z</time>
      </trkpt>
      <trkpt lat="43.64677" lon="3.69918">
        <ele>123.19</ele>
        <time>2014-05-18T07:35:02Z</time>
      </trkpt>
      <trkpt lat="43.64685" lon="3.7002">
        <ele>124.15</ele>
        <time>2014-05-18T07:35:12Z</time>
      </trkpt>
      <trkpt lat="43.64695" lon="3.70158">
        <ele>121.74</ele>
        <time>2014-05-18T07:35:25Z</time>
      </trkpt>
      <trkpt lat="43.64702" lon="3.70217">
        <ele>123.19</ele>
        <time>2014-05-18T07:35:30Z</time>
      </trkpt>
      <trkpt lat="43.64705" lon="3.70228">
        <ele>123.19</ele>
        <time>2014-05-18T07:35:31Z</time>
      </trkpt>
      <trkpt lat="43.6473" lon="3.70283">
        <ele>120.78</ele>
        <time>2014-05-18T07:35:39Z</time>
      </trkpt>
      <trkpt lat="43.6473" lon="3.70296">
        <ele>120.3</ele>
        <time>2014-05-18T07:35:45Z</time>
      </trkpt>
      <trkpt lat="43.64728" lon="3.70305">
        <ele>120.3</ele>
        <time>2014-05-18T07:35:46Z</time>
      </trkpt>
      <trkpt lat="43.64722" lon="3.70316">
        <ele>119.82</ele>
        <time>2014-05-18T07:35:47Z</time>
      </trkpt>
      <trkpt lat="43.64688" lon="3.70384">
        <ele>117.42</ele>
        <time>2014-05-18T07:35:55Z</time>
      </trkpt>
      <trkpt lat="43.64684" lon="3.70388">
        <ele>117.42</ele>
        <time>2014-05-18T07:35:56Z</time>
      </trkpt>
      <trkpt lat="43.64678" lon="3.70391">
        <ele>116.94</ele>
        <time>2014-05-18T07:35:57Z</time>
      </trkpt>
      <trkpt lat="43.64672" lon="3.70395">
        <ele>116.94</ele>
        <time>2014-05-18T07:35:58Z</time>
      </trkpt>
      <trkpt lat="43.64669" lon="3.70402">
        <ele>116.46</ele>
        <time>2014-05-18T07:35:59Z</time>
      </trkpt>
      <trkpt lat="43.64669" lon="3.70412">
        <ele>115.98</ele>
        <time>2014-05-18T07:36:00Z</time>
      </trkpt>
      <trkpt lat="43.64668" lon="3.70423">
        <ele>115.98</ele>
        <time>2014-05-18T07:36:01Z</time>
      </trkpt>
      <trkpt lat="43.64665" lon="3.70433">
        <ele>115.5</ele>
        <time>2014-05-18T07:36:02Z</time>
      </trkpt>
      <trkpt lat="43.64661" lon="3.70444">
        <ele>115.5</ele>
        <time>2014-05-18T07:36:03Z</time>
      </trkpt>
      <trkpt lat="43.64655" lon="3.70454">
        <ele>115.5</ele>
        <time>2014-05-18T07:36:04Z</time>
      </trkpt>
      <trkpt lat="43.64599" lon="3.70567">
        <ele>115.5</ele>
        <time>2014-05-18T07:36:11Z</time>
      </trkpt>
      <trkpt lat="43.64542" lon="3.70756">
        <ele>117.42</ele>
        <time>2014-05-18T07:36:18Z</time>
      </trkpt>
      <trkpt lat="43.64475" lon="3.7091">
        <ele>124.63</ele>
        <time>2014-05-18T07:36:24Z</time>
      </trkpt>
      <trkpt lat="43.6446" lon="3.70931">
        <ele>126.07</ele>
        <time>2014-05-18T07:36:25Z</time>
      </trkpt>
      <trkpt lat="43.64401" lon="3.71029">
        <ele>129.92</ele>
        <time>2014-05-18T07:36:30Z</time>
      </trkpt>
      <trkpt lat="43.64397" lon="3.71055">
        <ele>130.4</ele>
        <time>2014-05-18T07:36:31Z</time>
      </trkpt>
      <trkpt lat="43.64394" lon="3.71083">
        <ele>130.88</ele>
        <time>2014-05-18T07:36:32Z</time>
      </trkpt>
      <trkpt lat="43.64375" lon="3.71316">
        <ele>137.13</ele>
        <time>2014-05-18T07:36:41Z</time>
      </trkpt>
      <trkpt lat="43.64379" lon="3.71339">
        <ele>137.61</ele>
        <time>2014-05-18T07:36:42Z</time>
      </trkpt>
      <trkpt lat="43.64386" lon="3.71362">
        <ele>138.09</ele>
        <time>2014-05-18T07:36:43Z</time>
      </trkpt>
      <trkpt lat="43.64395" lon="3.71383">
        <ele>137.61</ele>
        <time>2014-05-18T07:36:44Z</time>
      </trkpt>
      <trkpt lat="43.64404" lon="3.71404">
        <ele>137.61</ele>
        <time>2014-05-18T07:36:45Z</time>
      </trkpt>
      <trkpt lat="43.64419" lon="3.7145">
        <ele>137.61</ele>
        <time>2014-05-18T07:36:47Z</time>
      </trkpt>
      <trkpt lat="43.64422" lon="3.71475">
        <ele>137.61</ele>
        <time>2014-05-18T07:36:48Z</time>
      </trkpt>
      <trkpt lat="43.64421" lon="3.71501">
        <ele>137.61</ele>
        <time>2014-05-18T07:36:49Z</time>
      </trkpt>
      <trkpt lat="43.64414" lon="3.71526">
        <ele>137.61</ele>
        <time>2014-05-18T07:36:50Z</time>
      </trkpt>
      <trkpt lat="43.64403" lon="3.7155">
        <ele>137.13</ele>
        <time>2014-05-18T07:36:51Z</time>
      </trkpt>
      <trkpt lat="43.64387" lon="3.71569">
        <ele>137.13</ele>
        <time>2014-05-18T07:36:52Z</time>
      </trkpt>
      <trkpt lat="43.6437" lon="3.71589">
        <ele>137.61</ele>
        <time>2014-05-18T07:36:53Z</time>
      </trkpt>
      <trkpt lat="43.64353" lon="3.71608">
        <ele>137.61</ele>
        <time>2014-05-18T07:36:54Z</time>
      </trkpt>
      <trkpt lat="43.64337" lon="3.71629">
        <ele>138.09</ele>
        <time>2014-05-18T07:36:55Z</time>
      </trkpt>
      <trkpt lat="43.64323" lon="3.71652">
        <ele>138.09</ele>
        <time>2014-05-18T07:36:56Z</time>
      </trkpt>
      <trkpt lat="43.64311" lon="3.71681">
        <ele>138.57</ele>
        <time>2014-05-18T07:36:57Z</time>
      </trkpt>
      <trkpt lat="43.64302" lon="3.71715">
        <ele>138.57</ele>
        <time>2014-05-18T07:36:58Z</time>
      </trkpt>
      <trkpt lat="43.64294" lon="3.71751">
        <ele>138.57</ele>
        <time>2014-05-18T07:36:59Z</time>
      </trkpt>
      <trkpt lat="43.64288" lon="3.71788">
        <ele>138.57</ele>
        <time>2014-05-18T07:37:00Z</time>
      </trkpt>
      <trkpt lat="43.64217" lon="3.72145">
        <ele>135.68</ele>
        <time>2014-05-18T07:37:09Z</time>
      </trkpt>
      <trkpt lat="43.64125" lon="3.72546">
        <ele>134.72</ele>
        <time>2014-05-18T07:37:20Z</time>
      </trkpt>
      <trkpt lat="43.64081" lon="3.72773">
        <ele>137.61</ele>
        <time>2014-05-18T07:37:26Z</time>
      </trkpt>
      <trkpt lat="43.64072" lon="3.72846">
        <ele>138.57</ele>
        <time>2014-05-18T07:37:28Z</time>
      </trkpt>
      <trkpt lat="43.64064" lon="3.7288">
        <ele>139.05</ele>
        <time>2014-05-18T07:37:29Z</time>
      </trkpt>
      <trkpt lat="43.64049" lon="3.72947">
        <ele>140.49</ele>
        <time>2014-05-18T07:37:31Z</time>
      </trkpt>
      <trkpt lat="43.64047" lon="3.72983">
        <ele>140.97</ele>
        <time>2014-05-18T07:37:32Z</time>
      </trkpt>
      <trkpt lat="43.64048" lon="3.73019">
        <ele>141.93</ele>
        <time>2014-05-18T07:37:33Z</time>
      </trkpt>
      <trkpt lat="43.64049" lon="3.73056">
        <ele>141.93</ele>
        <time>2014-05-18T07:37:34Z</time>
      </trkpt>
      <trkpt lat="43.64047" lon="3.73093">
        <ele>142.41</ele>
        <time>2014-05-18T07:37:35Z</time>
      </trkpt>
      <trkpt lat="43.64042" lon="3.7313">
        <ele>142.89</ele>
        <time>2014-05-18T07:37:36Z</time>
      </trkpt>
      <trkpt lat="43.64037" lon="3.73167">
        <ele>143.37</ele>
        <time>2014-05-18T07:37:37Z</time>
      </trkpt>
      <trkpt lat="43.64029" lon="3.73273">
        <ele>144.34</ele>
        <time>2014-05-18T07:37:40Z</time>
      </trkpt>
      <trkpt lat="43.64032" lon="3.73308">
        <ele>144.82</ele>
        <time>2014-05-18T07:37:41Z</time>
      </trkpt>
      <trkpt lat="43.64035" lon="3.73375">
        <ele>145.78</ele>
        <time>2014-05-18T07:37:43Z</time>
      </trkpt>
      <trkpt lat="43.64033" lon="3.73408">
        <ele>146.26</ele>
        <time>2014-05-18T07:37:44Z</time>
      </trkpt>
      <trkpt lat="43.64023" lon="3.73505">
        <ele>147.7</ele>
        <time>2014-05-18T07:37:47Z</time>
      </trkpt>
      <trkpt lat="43.64024" lon="3.73538">
        <ele>148.18</ele>
        <time>2014-05-18T07:37:48Z</time>
      </trkpt>
      <trkpt lat="43.64059" lon="3.7383">
        <ele>151.54</ele>
        <time>2014-05-18T07:37:57Z</time>
      </trkpt>
      <trkpt lat="43.64068" lon="3.73859">
        <ele>152.03</ele>
        <time>2014-05-18T07:37:58Z</time>
      </trkpt>
      <trkpt lat="43.64114" lon="3.74036">
        <ele>154.43</ele>
        <time>2014-05-18T07:38:05Z</time>
      </trkpt>
      <trkpt lat="43.64121" lon="3.7408">
        <ele>154.91</ele>
        <time>2014-05-18T07:38:07Z</time>
      </trkpt>
      <trkpt lat="43.64121" lon="3.74102">
        <ele>154.91</ele>
        <time>2014-05-18T07:38:08Z</time>
      </trkpt>
      <trkpt lat="43.64118" lon="3.74122">
        <ele>154.91</ele>
        <time>2014-05-18T07:38:09Z</time>
      </trkpt>
      <trkpt lat="43.64113" lon="3.74159">
        <ele>155.87</ele>
        <time>2014-05-18T07:38:11Z</time>
      </trkpt>
      <trkpt lat="43.64113" lon="3.74175">
        <ele>155.87</ele>
        <time>2014-05-18T07:38:12Z</time>
      </trkpt>
      <trkpt lat="43.64115" lon="3.74189">
        <ele>155.87</ele>
        <time>2014-05-18T07:38:13Z</time>
      </trkpt>
      <trkpt lat="43.64119" lon="3.742">
        <ele>155.87</ele>
        <time>2014-05-18T07:38:14Z</time>
      </trkpt>
      <trkpt lat="43.64124" lon="3.74209">
        <ele>155.87</ele>
        <time>2014-05-18T07:38:15Z</time>
      </trkpt>
      <trkpt lat="43.64129" lon="3.74216">
        <ele>155.87</ele>
        <time>2014-05-18T07:38:16Z</time>
      </trkpt>
      <trkpt lat="43.64134" lon="3.74224">
        <ele>156.35</ele>
        <time>2014-05-18T07:38:17Z</time>
      </trkpt>
      <trkpt lat="43.64139" lon="3.74234">
        <ele>156.35</ele>
        <time>2014-05-18T07:38:18Z</time>
      </trkpt>
      <trkpt lat="43.64142" lon="3.74246">
        <ele>156.35</ele>
        <time>2014-05-18T07:38:19Z</time>
      </trkpt>
      <trkpt lat="43.64142" lon="3.74262">
        <ele>156.35</ele>
        <time>2014-05-18T07:38:20Z</time>
      </trkpt>
      <trkpt lat="43.64141" lon="3.74279">
        <ele>156.35</ele>
        <time>2014-05-18T07:38:21Z</time>
      </trkpt>
      <trkpt lat="43.64137" lon="3.74299">
        <ele>156.83</ele>
        <time>2014-05-18T07:38:22Z</time>
      </trkpt>
      <trkpt lat="43.64133" lon="3.74318">
        <ele>156.83</ele>
        <time>2014-05-18T07:38:23Z</time>
      </trkpt>
      <trkpt lat="43.64083" lon="3.74477">
        <ele>156.83</ele>
        <time>2014-05-18T07:38:30Z</time>
      </trkpt>
      <trkpt lat="43.63978" lon="3.74796">
        <ele>157.31</ele>
        <time>2014-05-18T07:38:43Z</time>
      </trkpt>
      <trkpt lat="43.63907" lon="3.74951">
        <ele>162.12</ele>
        <time>2014-05-18T07:38:51Z</time>
      </trkpt>
      <trkpt lat="43.63866" lon="3.75017">
        <ele>162.6</ele>
        <time>2014-05-18T07:38:58Z</time>
      </trkpt>
      <trkpt lat="43.63853" lon="3.75034">
        <ele>163.08</ele>
        <time>2014-05-18T07:39:05Z</time>
      </trkpt>
      <trkpt lat="43.63845" lon="3.7504">
        <ele>163.56</ele>
        <time>2014-05-18T07:39:11Z</time>
      </trkpt>
      <trkpt lat="43.6384" lon="3.75047">
        <ele>163.56</ele>
        <time>2014-05-18T07:39:12Z</time>
      </trkpt>
      <trkpt lat="43.63833" lon="3.75059">
        <ele>163.56</ele>
        <time>2014-05-18T07:39:13Z</time>
      </trkpt>
      <trkpt lat="43.63775" lon="3.7516">
        <ele>159.24</ele>
        <time>2014-05-18T07:39:19Z</time>
      </trkpt>
      <trkpt lat="43.63647" lon="3.75378">
        <ele>150.1</ele>
        <time>2014-05-18T07:39:30Z</time>
      </trkpt>
      <trkpt lat="43.63596" lon="3.75475">
        <ele>146.26</ele>
        <time>2014-05-18T07:39:36Z</time>
      </trkpt>
      <trkpt lat="43.63592" lon="3.75488">
        <ele>145.78</ele>
        <time>2014-05-18T07:39:37Z</time>
      </trkpt>
      <trkpt lat="43.6359" lon="3.75499">
        <ele>145.3</ele>
        <time>2014-05-18T07:39:38Z</time>
      </trkpt>
      <trkpt lat="43.63588" lon="3.75506">
        <ele>144.82</ele>
        <time>2014-05-18T07:39:39Z</time>
      </trkpt>
      <trkpt lat="43.63586" lon="3.75509">
        <ele>144.82</ele>
        <time>2014-05-18T07:39:40Z</time>
      </trkpt>
      <trkpt lat="43.63572" lon="3.75513">
        <ele>143.37</ele>
        <time>2014-05-18T07:39:46Z</time>
      </trkpt>
      <trkpt lat="43.63575" lon="3.75519">
        <ele>143.37</ele>
        <time>2014-05-18T07:39:54Z</time>
      </trkpt>
      <trkpt lat="43.63576" lon="3.75516">
        <ele>144.34</ele>
        <time>2014-05-18T07:40:29Z</time>
      </trkpt>
      <trkpt lat="43.63581" lon="3.75518">
        <ele>144.82</ele>
        <time>2014-05-18T07:44:19Z</time>
      </trkpt>
      <trkpt lat="43.63586" lon="3.75531">
        <ele>144.82</ele>
        <time>2014-05-18T07:44:23Z</time>
      </trkpt>
      <trkpt lat="43.63587" lon="3.75545">
        <ele>144.82</ele>
        <time>2014-05-18T07:44:24Z</time>
      </trkpt>
      <trkpt lat="43.63591" lon="3.75587">
        <ele>144.82</ele>
        <time>2014-05-18T07:44:26Z</time>
      </trkpt>
      <trkpt lat="43.63596" lon="3.7561">
        <ele>144.82</ele>
        <time>2014-05-18T07:44:27Z</time>
      </trkpt>
      <trkpt lat="43.63603" lon="3.75635">
        <ele>144.82</ele>
        <time>2014-05-18T07:44:28Z</time>
      </trkpt>
      <trkpt lat="43.63612" lon="3.75661">
        <ele>144.82</ele>
        <time>2014-05-18T07:44:29Z</time>
      </trkpt>
      <trkpt lat="43.63621" lon="3.75685">
        <ele>144.82</ele>
        <time>2014-05-18T07:44:30Z</time>
      </trkpt>
      <trkpt lat="43.63649" lon="3.75767">
        <ele>145.3</ele>
        <time>2014-05-18T07:44:34Z</time>
      </trkpt>
      <trkpt lat="43.63652" lon="3.75784">
        <ele>145.3</ele>
        <time>2014-05-18T07:44:35Z</time>
      </trkpt>
      <trkpt lat="43.63654" lon="3.758">
        <ele>145.3</ele>
        <time>2014-05-18T07:44:36Z</time>
      </trkpt>
      <trkpt lat="43.63652" lon="3.75815">
        <ele>145.78</ele>
        <time>2014-05-18T07:44:37Z</time>
      </trkpt>
      <trkpt lat="43.63649" lon="3.75828">
        <ele>145.78</ele>
        <time>2014-05-18T07:44:38Z</time>
      </trkpt>
      <trkpt lat="43.63644" lon="3.75839">
        <ele>145.3</ele>
        <time>2014-05-18T07:44:39Z</time>
      </trkpt>
      <trkpt lat="43.63637" lon="3.75847">
        <ele>145.3</ele>
        <time>2014-05-18T07:44:40Z</time>
      </trkpt>
      <trkpt lat="43.63626" lon="3.75848">
        <ele>145.3</ele>
        <time>2014-05-18T07:44:41Z</time>
      </trkpt>
      <trkpt lat="43.63615" lon="3.75848">
        <ele>145.3</ele>
        <time>2014-05-18T07:44:42Z</time>
      </trkpt>
      <trkpt lat="43.63604" lon="3.75847">
        <ele>145.3</ele>
        <time>2014-05-18T07:44:43Z</time>
      </trkpt>
      <trkpt lat="43.63592" lon="3.75845">
        <ele>144.82</ele>
        <time>2014-05-18T07:44:44Z</time>
      </trkpt>
      <trkpt lat="43.63578" lon="3.75837">
        <ele>144.82</ele>
        <time>2014-05-18T07:44:45Z</time>
      </trkpt>
      <trkpt lat="43.63563" lon="3.75825">
        <ele>144.82</ele>
        <time>2014-05-18T07:44:46Z</time>
      </trkpt>
      <trkpt lat="43.6346" lon="3.75742">
        <ele>143.85</ele>
        <time>2014-05-18T07:44:52Z</time>
      </trkpt>
      <trkpt lat="43.63337" lon="3.75628">
        <ele>144.82</ele>
        <time>2014-05-18T07:45:00Z</time>
      </trkpt>
      <trkpt lat="43.63326" lon="3.75614">
        <ele>144.82</ele>
        <time>2014-05-18T07:45:01Z</time>
      </trkpt>
      <trkpt lat="43.63317" lon="3.75599">
        <ele>145.3</ele>
        <time>2014-05-18T07:45:02Z</time>
      </trkpt>
      <trkpt lat="43.63309" lon="3.75582">
        <ele>145.3</ele>
        <time>2014-05-18T07:45:03Z</time>
      </trkpt>
      <trkpt lat="43.63303" lon="3.75563">
        <ele>145.3</ele>
        <time>2014-05-18T07:45:04Z</time>
      </trkpt>
      <trkpt lat="43.63299" lon="3.75542">
        <ele>145.3</ele>
        <time>2014-05-18T07:45:05Z</time>
      </trkpt>
      <trkpt lat="43.63298" lon="3.75521">
        <ele>145.3</ele>
        <time>2014-05-18T07:45:06Z</time>
      </trkpt>
      <trkpt lat="43.633" lon="3.755">
        <ele>145.3</ele>
        <time>2014-05-18T07:45:07Z</time>
      </trkpt>
      <trkpt lat="43.63305" lon="3.75482">
        <ele>144.82</ele>
        <time>2014-05-18T07:45:08Z</time>
      </trkpt>
      <trkpt lat="43.63311" lon="3.75467">
        <ele>144.82</ele>
        <time>2014-05-18T07:45:09Z</time>
      </trkpt>
      <trkpt lat="43.63321" lon="3.75454">
        <ele>144.34</ele>
        <time>2014-05-18T07:45:10Z</time>
      </trkpt>
      <trkpt lat="43.63335" lon="3.75447">
        <ele>143.85</ele>
        <time>2014-05-18T07:45:11Z</time>
      </trkpt>
      <trkpt lat="43.63351" lon="3.75447">
        <ele>143.85</ele>
        <time>2014-05-18T07:45:12Z</time>
      </trkpt>
      <trkpt lat="43.63367" lon="3.75451">
        <ele>143.37</ele>
        <time>2014-05-18T07:45:13Z</time>
      </trkpt>
      <trkpt lat="43.63379" lon="3.75462">
        <ele>142.41</ele>
        <time>2014-05-18T07:45:14Z</time>
      </trkpt>
      <trkpt lat="43.63388" lon="3.7548">
        <ele>141.45</ele>
        <time>2014-05-18T07:45:15Z</time>
      </trkpt>
      <trkpt lat="43.63393" lon="3.75501">
        <ele>140.97</ele>
        <time>2014-05-18T07:45:16Z</time>
      </trkpt>
      <trkpt lat="43.63391" lon="3.75534">
        <ele>141.45</ele>
        <time>2014-05-18T07:45:17Z</time>
      </trkpt>
      <trkpt lat="43.63389" lon="3.75563">
        <ele>141.45</ele>
        <time>2014-05-18T07:45:18Z</time>
      </trkpt>
      <trkpt lat="43.63386" lon="3.75596">
        <ele>140.49</ele>
        <time>2014-05-18T07:45:19Z</time>
      </trkpt>
      <trkpt lat="43.63381" lon="3.75632">
        <ele>139.53</ele>
        <time>2014-05-18T07:45:20Z</time>
      </trkpt>
      <trkpt lat="43.63376" lon="3.7567">
        <ele>138.57</ele>
        <time>2014-05-18T07:45:21Z</time>
      </trkpt>
      <trkpt lat="43.63368" lon="3.75708">
        <ele>138.09</ele>
        <time>2014-05-18T07:45:22Z</time>
      </trkpt>
      <trkpt lat="43.63298" lon="3.75928">
        <ele>131.84</ele>
        <time>2014-05-18T07:45:28Z</time>
      </trkpt>
      <trkpt lat="43.63147" lon="3.76322">
        <ele>126.07</ele>
        <time>2014-05-18T07:45:38Z</time>
      </trkpt>
      <trkpt lat="43.63055" lon="3.76667">
        <ele>119.34</ele>
        <time>2014-05-18T07:45:46Z</time>
      </trkpt>
      <trkpt lat="43.62918" lon="3.77275">
        <ele>107.81</ele>
        <time>2014-05-18T07:46:00Z</time>
      </trkpt>
      <trkpt lat="43.62879" lon="3.77573">
        <ele>106.36</ele>
        <time>2014-05-18T07:46:07Z</time>
      </trkpt>
      <trkpt lat="43.62901" lon="3.77791">
        <ele>107.32</ele>
        <time>2014-05-18T07:46:12Z</time>
      </trkpt>
      <trkpt lat="43.62893" lon="3.77996">
        <ele>106.84</ele>
        <time>2014-05-18T07:46:17Z</time>
      </trkpt>
      <trkpt lat="43.62862" lon="3.78107">
        <ele>105.88</ele>
        <time>2014-05-18T07:46:20Z</time>
      </trkpt>
      <trkpt lat="43.62847" lon="3.78142">
        <ele>105.4</ele>
        <time>2014-05-18T07:46:21Z</time>
      </trkpt>
      <trkpt lat="43.62831" lon="3.78175">
        <ele>104.92</ele>
        <time>2014-05-18T07:46:22Z</time>
      </trkpt>
      <trkpt lat="43.62685" lon="3.78397">
        <ele>101.56</ele>
        <time>2014-05-18T07:46:29Z</time>
      </trkpt>
      <trkpt lat="43.62452" lon="3.78688">
        <ele>94.83</ele>
        <time>2014-05-18T07:46:39Z</time>
      </trkpt>
      <trkpt lat="43.62285" lon="3.78909">
        <ele>88.1</ele>
        <time>2014-05-18T07:46:47Z</time>
      </trkpt>
      <trkpt lat="43.62265" lon="3.78932">
        <ele>87.14</ele>
        <time>2014-05-18T07:46:48Z</time>
      </trkpt>
      <trkpt lat="43.62242" lon="3.78953">
        <ele>86.66</ele>
        <time>2014-05-18T07:46:49Z</time>
      </trkpt>
      <trkpt lat="43.62057" lon="3.7911">
        <ele>80.89</ele>
        <time>2014-05-18T07:46:56Z</time>
      </trkpt>
      <trkpt lat="43.61903" lon="3.79247">
        <ele>77.52</ele>
        <time>2014-05-18T07:47:02Z</time>
      </trkpt>
      <trkpt lat="43.6188" lon="3.79276">
        <ele>77.52</ele>
        <time>2014-05-18T07:47:03Z</time>
      </trkpt>
      <trkpt lat="43.61858" lon="3.79309">
        <ele>77.04</ele>
        <time>2014-05-18T07:47:04Z</time>
      </trkpt>
      <trkpt lat="43.61838" lon="3.79344">
        <ele>76.08</ele>
        <time>2014-05-18T07:47:05Z</time>
      </trkpt>
      <trkpt lat="43.61818" lon="3.79381">
        <ele>75.12</ele>
        <time>2014-05-18T07:47:06Z</time>
      </trkpt>
      <trkpt lat="43.61599" lon="3.79791">
        <ele>69.83</ele>
        <time>2014-05-18T07:47:17Z</time>
      </trkpt>
      <trkpt lat="43.61465" lon="3.79916">
        <ele>72.24</ele>
        <time>2014-05-18T07:47:22Z</time>
      </trkpt>
      <trkpt lat="43.61258" lon="3.80045">
        <ele>68.87</ele>
        <time>2014-05-18T07:47:29Z</time>
      </trkpt>
      <trkpt lat="43.61137" lon="3.80192">
        <ele>62.14</ele>
        <time>2014-05-18T07:47:34Z</time>
      </trkpt>
      <trkpt lat="43.60899" lon="3.8051">
        <ele>49.65</ele>
        <time>2014-05-18T07:47:44Z</time>
      </trkpt>
      <trkpt lat="43.6078" lon="3.8071">
        <ele>46.76</ele>
        <time>2014-05-18T07:47:50Z</time>
      </trkpt>
      <trkpt lat="43.60679" lon="3.80982">
        <ele>44.36</ele>
        <time>2014-05-18T07:47:57Z</time>
      </trkpt>
      <trkpt lat="43.60557" lon="3.81205">
        <ele>42.44</ele>
        <time>2014-05-18T07:48:04Z</time>
      </trkpt>
      <trkpt lat="43.60533" lon="3.81276">
        <ele>41.95</ele>
        <time>2014-05-18T07:48:06Z</time>
      </trkpt>
      <trkpt lat="43.60524" lon="3.81315">
        <ele>41.95</ele>
        <time>2014-05-18T07:48:07Z</time>
      </trkpt>
      <trkpt lat="43.60517" lon="3.81355">
        <ele>41.47</ele>
        <time>2014-05-18T07:48:08Z</time>
      </trkpt>
      <trkpt lat="43.60514" lon="3.81395">
        <ele>40.99</ele>
        <time>2014-05-18T07:48:09Z</time>
      </trkpt>
      <trkpt lat="43.60513" lon="3.81436">
        <ele>40.51</ele>
        <time>2014-05-18T07:48:10Z</time>
      </trkpt>
      <trkpt lat="43.60515" lon="3.81476">
        <ele>40.03</ele>
        <time>2014-05-18T07:48:11Z</time>
      </trkpt>
      <trkpt lat="43.60519" lon="3.81516">
        <ele>39.55</ele>
        <time>2014-05-18T07:48:12Z</time>
      </trkpt>
      <trkpt lat="43.60528" lon="3.81556">
        <ele>39.07</ele>
        <time>2014-05-18T07:48:13Z</time>
      </trkpt>
      <trkpt lat="43.60539" lon="3.81595">
        <ele>39.07</ele>
        <time>2014-05-18T07:48:14Z</time>
      </trkpt>
      <trkpt lat="43.60553" lon="3.81635">
        <ele>39.07</ele>
        <time>2014-05-18T07:48:15Z</time>
      </trkpt>
      <trkpt lat="43.60569" lon="3.81673">
        <ele>38.59</ele>
        <time>2014-05-18T07:48:16Z</time>
      </trkpt>
      <trkpt lat="43.60587" lon="3.81711">
        <ele>38.59</ele>
        <time>2014-05-18T07:48:17Z</time>
      </trkpt>
      <trkpt lat="43.60707" lon="3.81941">
        <ele>39.55</ele>
        <time>2014-05-18T07:48:24Z</time>
      </trkpt>
      <trkpt lat="43.60855" lon="3.82163">
        <ele>42.92</ele>
        <time>2014-05-18T07:48:32Z</time>
      </trkpt>
      <trkpt lat="43.60987" lon="3.82258">
        <ele>43.4</ele>
        <time>2014-05-18T07:48:38Z</time>
      </trkpt>
      <trkpt lat="43.61106" lon="3.82287">
        <ele>42.44</ele>
        <time>2014-05-18T07:48:44Z</time>
      </trkpt>
      <trkpt lat="43.61137" lon="3.82297">
        <ele>43.88</ele>
        <time>2014-05-18T07:48:46Z</time>
      </trkpt>
      <trkpt lat="43.61151" lon="3.82305">
        <ele>44.36</ele>
        <time>2014-05-18T07:48:47Z</time>
      </trkpt>
      <trkpt lat="43.61163" lon="3.82315">
        <ele>45.8</ele>
        <time>2014-05-18T07:48:48Z</time>
      </trkpt>
      <trkpt lat="43.61173" lon="3.82327">
        <ele>46.76</ele>
        <time>2014-05-18T07:48:49Z</time>
      </trkpt>
      <trkpt lat="43.61181" lon="3.8234">
        <ele>47.72</ele>
        <time>2014-05-18T07:48:50Z</time>
      </trkpt>
      <trkpt lat="43.61188" lon="3.82356">
        <ele>49.16</ele>
        <time>2014-05-18T07:48:51Z</time>
      </trkpt>
      <trkpt lat="43.61193" lon="3.82373">
        <ele>50.13</ele>
        <time>2014-05-18T07:48:52Z</time>
      </trkpt>
      <trkpt lat="43.61196" lon="3.82391">
        <ele>51.57</ele>
        <time>2014-05-18T07:48:53Z</time>
      </trkpt>
      <trkpt lat="43.61197" lon="3.82409">
        <ele>52.53</ele>
        <time>2014-05-18T07:48:54Z</time>
      </trkpt>
      <trkpt lat="43.61197" lon="3.82426">
        <ele>53.01</ele>
        <time>2014-05-18T07:48:55Z</time>
      </trkpt>
      <trkpt lat="43.61195" lon="3.82441">
        <ele>53.97</ele>
        <time>2014-05-18T07:48:56Z</time>
      </trkpt>
      <trkpt lat="43.61193" lon="3.82455">
        <ele>54.93</ele>
        <time>2014-05-18T07:48:57Z</time>
      </trkpt>
      <trkpt lat="43.61178" lon="3.82579">
        <ele>61.18</ele>
        <time>2014-05-18T07:49:07Z</time>
      </trkpt>
      <trkpt lat="43.61169" lon="3.8267">
        <ele>63.1</ele>
        <time>2014-05-18T07:49:16Z</time>
      </trkpt>
      <trkpt lat="43.61157" lon="3.82753">
        <ele>62.62</ele>
        <time>2014-05-18T07:49:29Z</time>
      </trkpt>
      <trkpt lat="43.61154" lon="3.82772">
        <ele>62.14</ele>
        <time>2014-05-18T07:49:40Z</time>
      </trkpt>
      <trkpt lat="43.61148" lon="3.82799">
        <ele>61.18</ele>
        <time>2014-05-18T07:49:56Z</time>
      </trkpt>
      <trkpt lat="43.61133" lon="3.8288">
        <ele>62.14</ele>
        <time>2014-05-18T07:50:04Z</time>
      </trkpt>
      <trkpt lat="43.61107" lon="3.83004">
        <ele>63.58</ele>
        <time>2014-05-18T07:50:10Z</time>
      </trkpt>
      <trkpt lat="43.61074" lon="3.83182">
        <ele>65.03</ele>
        <time>2014-05-18T07:50:22Z</time>
      </trkpt>
      <trkpt lat="43.6102" lon="3.83477">
        <ele>65.99</ele>
        <time>2014-05-18T07:50:40Z</time>
      </trkpt>
      <trkpt lat="43.60975" lon="3.83676">
        <ele>65.99</ele>
        <time>2014-05-18T07:50:53Z</time>
      </trkpt>
      <trkpt lat="43.60938" lon="3.83829">
        <ele>65.51</ele>
        <time>2014-05-18T07:51:01Z</time>
      </trkpt>
      <trkpt lat="43.60909" lon="3.83997">
        <ele>65.51</ele>
        <time>2014-05-18T07:51:10Z</time>
      </trkpt>
      <trkpt lat="43.60893" lon="3.84105">
        <ele>65.03</ele>
        <time>2014-05-18T07:51:18Z</time>
      </trkpt>
      <trkpt lat="43.60888" lon="3.84141">
        <ele>63.58</ele>
        <time>2014-05-18T07:51:24Z</time>
      </trkpt>
      <trkpt lat="43.60886" lon="3.84148">
        <ele>63.58</ele>
        <time>2014-05-18T07:51:25Z</time>
      </trkpt>
      <trkpt lat="43.60883" lon="3.84153">
        <ele>63.1</ele>
        <time>2014-05-18T07:51:26Z</time>
      </trkpt>
      <trkpt lat="43.60876" lon="3.84168">
        <ele>63.1</ele>
        <time>2014-05-18T07:51:28Z</time>
      </trkpt>
      <trkpt lat="43.60875" lon="3.84179">
        <ele>63.1</ele>
        <time>2014-05-18T07:51:29Z</time>
      </trkpt>
      <trkpt lat="43.60875" lon="3.84192">
        <ele>63.58</ele>
        <time>2014-05-18T07:51:30Z</time>
      </trkpt>
      <trkpt lat="43.60872" lon="3.84393">
        <ele>66.95</ele>
        <time>2014-05-18T07:51:44Z</time>
      </trkpt>
      <trkpt lat="43.60863" lon="3.84638">
        <ele>72.24</ele>
        <time>2014-05-18T07:52:00Z</time>
      </trkpt>
      <trkpt lat="43.6086" lon="3.84737">
        <ele>74.16</ele>
        <time>2014-05-18T07:52:08Z</time>
      </trkpt>
      <trkpt lat="43.60859" lon="3.84743">
        <ele>74.16</ele>
        <time>2014-05-18T07:52:09Z</time>
      </trkpt>
      <trkpt lat="43.6085" lon="3.84766">
        <ele>75.12</ele>
        <time>2014-05-18T07:52:17Z</time>
      </trkpt>
      <trkpt lat="43.60846" lon="3.84773">
        <ele>75.12</ele>
        <time>2014-05-18T07:52:18Z</time>
      </trkpt>
      <trkpt lat="43.60843" lon="3.84781">
        <ele>74.64</ele>
        <time>2014-05-18T07:52:19Z</time>
      </trkpt>
      <trkpt lat="43.6084" lon="3.8479">
        <ele>74.16</ele>
        <time>2014-05-18T07:52:20Z</time>
      </trkpt>
      <trkpt lat="43.60837" lon="3.848">
        <ele>74.16</ele>
        <time>2014-05-18T07:52:21Z</time>
      </trkpt>
      <trkpt lat="43.60834" lon="3.8481">
        <ele>73.2</ele>
        <time>2014-05-18T07:52:22Z</time>
      </trkpt>
      <trkpt lat="43.60831" lon="3.8482">
        <ele>72.72</ele>
        <time>2014-05-18T07:52:23Z</time>
      </trkpt>
      <trkpt lat="43.60826" lon="3.84829">
        <ele>72.72</ele>
        <time>2014-05-18T07:52:24Z</time>
      </trkpt>
      <trkpt lat="43.60821" lon="3.84837">
        <ele>72.24</ele>
        <time>2014-05-18T07:52:25Z</time>
      </trkpt>
      <trkpt lat="43.60816" lon="3.84845">
        <ele>72.24</ele>
        <time>2014-05-18T07:52:26Z</time>
      </trkpt>
      <trkpt lat="43.60752" lon="3.84956">
        <ele>71.76</ele>
        <time>2014-05-18T07:52:39Z</time>
      </trkpt>
      <trkpt lat="43.60719" lon="3.85019">
        <ele>72.24</ele>
        <time>2014-05-18T07:52:45Z</time>
      </trkpt>
      <trkpt lat="43.60716" lon="3.8503">
        <ele>72.72</ele>
        <time>2014-05-18T07:52:46Z</time>
      </trkpt>
      <trkpt lat="43.60668" lon="3.85137">
        <ele>71.27</ele>
        <time>2014-05-18T07:52:57Z</time>
      </trkpt>
      <trkpt lat="43.60646" lon="3.85167">
        <ele>70.79</ele>
        <time>2014-05-18T07:53:04Z</time>
      </trkpt>
      <trkpt lat="43.60644" lon="3.85171">
        <ele>72.24</ele>
        <time>2014-05-18T07:53:19Z</time>
      </trkpt>
      <trkpt lat="43.60625" lon="3.85196">
        <ele>74.64</ele>
        <time>2014-05-18T07:54:20Z</time>
      </trkpt>
      <trkpt lat="43.60585" lon="3.85277">
        <ele>72.24</ele>
        <time>2014-05-18T07:54:28Z</time>
      </trkpt>
      <trkpt lat="43.60544" lon="3.85379">
        <ele>68.87</ele>
        <time>2014-05-18T07:54:38Z</time>
      </trkpt>
      <trkpt lat="43.60508" lon="3.85519">
        <ele>63.58</ele>
        <time>2014-05-18T07:54:49Z</time>
      </trkpt>
      <trkpt lat="43.60453" lon="3.85711">
        <ele>56.86</ele>
        <time>2014-05-18T07:55:04Z</time>
      </trkpt>
      <trkpt lat="43.60427" lon="3.85789">
        <ele>53.49</ele>
        <time>2014-05-18T07:55:13Z</time>
      </trkpt>
      <trkpt lat="43.60425" lon="3.85798">
        <ele>53.49</ele>
        <time>2014-05-18T07:55:23Z</time>
      </trkpt>
      <trkpt lat="43.60411" lon="3.85842">
        <ele>53.01</ele>
        <time>2014-05-18T07:55:29Z</time>
      </trkpt>
      <trkpt lat="43.60387" lon="3.85922">
        <ele>51.09</ele>
        <time>2014-05-18T07:55:37Z</time>
      </trkpt>
      <trkpt lat="43.60384" lon="3.85925">
        <ele>50.61</ele>
        <time>2014-05-18T07:55:38Z</time>
      </trkpt>
      <trkpt lat="43.6038" lon="3.85926">
        <ele>50.13</ele>
        <time>2014-05-18T07:55:39Z</time>
      </trkpt>
      <trkpt lat="43.60373" lon="3.8592">
        <ele>49.65</ele>
        <time>2014-05-18T07:55:40Z</time>
      </trkpt>
      <trkpt lat="43.60364" lon="3.85913">
        <ele>49.16</ele>
        <time>2014-05-18T07:55:41Z</time>
      </trkpt>
      <trkpt lat="43.60356" lon="3.85906">
        <ele>48.2</ele>
        <time>2014-05-18T07:55:42Z</time>
      </trkpt>
      <trkpt lat="43.60345" lon="3.85896">
        <ele>48.2</ele>
        <time>2014-05-18T07:55:43Z</time>
      </trkpt>
      <trkpt lat="43.60334" lon="3.85885">
        <ele>48.2</ele>
        <time>2014-05-18T07:55:44Z</time>
      </trkpt>
      <trkpt lat="43.60223" lon="3.85759">
        <ele>48.68</ele>
        <time>2014-05-18T07:55:55Z</time>
      </trkpt>
      <trkpt lat="43.60192" lon="3.85716">
        <ele>46.28</ele>
        <time>2014-05-18T07:56:01Z</time>
      </trkpt>
      <trkpt lat="43.6019" lon="3.85707">
        <ele>46.28</ele>
        <time>2014-05-18T07:56:02Z</time>
      </trkpt>
      <trkpt lat="43.60188" lon="3.85699">
        <ele>45.8</ele>
        <time>2014-05-18T07:56:03Z</time>
      </trkpt>
      <trkpt lat="43.60185" lon="3.85692">
        <ele>45.32</ele>
        <time>2014-05-18T07:56:04Z</time>
      </trkpt>
      <trkpt lat="43.6018" lon="3.85688">
        <ele>44.84</ele>
        <time>2014-05-18T07:56:05Z</time>
      </trkpt>
      <trkpt lat="43.60173" lon="3.85683">
        <ele>44.84</ele>
        <time>2014-05-18T07:56:06Z</time>
      </trkpt>
      <trkpt lat="43.60167" lon="3.85675">
        <ele>44.36</ele>
        <time>2014-05-18T07:56:07Z</time>
      </trkpt>
      <trkpt lat="43.60161" lon="3.85666">
        <ele>43.88</ele>
        <time>2014-05-18T07:56:08Z</time>
      </trkpt>
      <trkpt lat="43.60156" lon="3.85658">
        <ele>43.4</ele>
        <time>2014-05-18T07:56:09Z</time>
      </trkpt>
      <trkpt lat="43.60138" lon="3.85638">
        <ele>42.92</ele>
        <time>2014-05-18T07:56:14Z</time>
      </trkpt>
      <trkpt lat="43.60135" lon="3.8564">
        <ele>42.92</ele>
        <time>2014-05-18T07:56:15Z</time>
      </trkpt>
      <trkpt lat="43.60132" lon="3.85643">
        <ele>42.44</ele>
        <time>2014-05-18T07:56:16Z</time>
      </trkpt>
      <trkpt lat="43.60129" lon="3.85647">
        <ele>42.44</ele>
        <time>2014-05-18T07:56:17Z</time>
      </trkpt>
      <trkpt lat="43.60127" lon="3.85651">
        <ele>41.95</ele>
        <time>2014-05-18T07:56:18Z</time>
      </trkpt>
      <trkpt lat="43.60109" lon="3.85686">
        <ele>41.95</ele>
        <time>2014-05-18T07:56:28Z</time>
      </trkpt>
      <trkpt lat="43.6008" lon="3.85737">
        <ele>40.99</ele>
        <time>2014-05-18T07:56:37Z</time>
      </trkpt>
      <trkpt lat="43.60075" lon="3.85749">
        <ele>40.99</ele>
        <time>2014-05-18T07:56:50Z</time>
      </trkpt>
      <trkpt lat="43.60066" lon="3.85762">
        <ele>40.99</ele>
        <time>2014-05-18T07:57:01Z</time>
      </trkpt>
      <trkpt lat="43.60058" lon="3.85759">
        <ele>40.99</ele>
        <time>2014-05-18T07:57:06Z</time>
      </trkpt>
      <trkpt lat="43.60052" lon="3.8575">
        <ele>41.95</ele>
        <time>2014-05-18T07:57:15Z</time>
      </trkpt>
      <trkpt lat="43.60054" lon="3.85746">
        <ele>41.95</ele>
        <time>2014-05-18T07:57:28Z</time>
      </trkpt>
      <trkpt lat="43.60055" lon="3.85746">
        <ele>42.44</ele>
        <time>2014-05-18T07:57:48Z</time>
      </trkpt>
      <trkpt lat="43.60057" lon="3.85747">
        <ele>39.55</ele>
        <time>2014-05-18T07:58:06Z</time>
      </trkpt>
    </trkseg>
  </trk>
</gpx>